Observation data for Dozier on 01/12/2018      Previous  Date  Next       Current Mesonet Observations  Soil Data  Daily Summary Page  Observations in Plain Language
KDO1 120600Z 35007KT M05/M09 A3029 RMK A01 T10491093  RH  072%=      5-min Rain = 0
KDO1 120601Z 36007KT M05/M09 A3029 RMK A01 T10491093  RH  072%=      5-min Rain = 0
KDO1 120602Z 00007KT M05/M09 A3029 RMK A01 T10491093  RH  072%=      5-min Rain = 0
KDO1 120603Z 01007KT M05/M09 A3029 RMK A01 T10501093  RH  072%=      5-min Rain = 0
KDO1 120604Z 01006KT M05/M09 A3029 RMK A01 T10501093  RH  072%=      5-min Rain = 0
KDO1 120605Z 01005KT M05/M09 A3029 RMK A01 T10501093  RH  072%=      5-min Rain = 0
KDO1 120606Z 01004KT M05/M09 A3029 RMK A01 T10501093  RH  072%=      5-min Rain = 0
KDO1 120607Z 00003KT M05/M09 A3029 RMK A01 T10501093  RH  072%=      5-min Rain = 0
KDO1 120608Z 01004KT M05/M09 A3029 RMK A01 T10501093  RH  072%=      5-min Rain = 0
KDO1 120609Z 02003KT M05/M09 A3029 RMK A01 T10511094  RH  072%=      5-min Rain = 0
KDO1 120610Z 03003KT M05/M09 A3029 RMK A01 T10511094  RH  072%=      5-min Rain = 0
KDO1 120611Z 05003KT M05/M10 A3029 RMK A01 T10521095  RH  072%=      5-min Rain = 0
KDO1 120612Z 07003KT M05/M10 A3029 RMK A01 T10531095  RH  072%=      5-min Rain = 0
KDO1 120613Z 07002KT M05/M10 A3029 RMK A01 T10541096  RH  072%=      5-min Rain = 0
KDO1 120614Z 08001KT M06/M10 A3029 RMK A01 T10551096  RH  073%=      5-min Rain = 0
KDO1 120615Z 11001KT M06/M10 A303 RMK A01 T10551096  RH  073%=      5-min Rain = 0
KDO1 120616Z 14001KT M06/M10 A303 RMK A01 T10551096  RH  073%=      5-min Rain = 0
KDO1 120617Z 16001KT M06/M10 A303 RMK A01 T10561096  RH  073%=      5-min Rain = 0
KDO1 120618Z 16001KT M06/M10 A303 RMK A01 T10561096  RH  074%=      5-min Rain = 0
KDO1 120619Z 16002KT M06/M10 A303 RMK A01 T10571096  RH  074%=      5-min Rain = 0
KDO1 120620Z 17002KT M06/M10 A303 RMK A01 T10571096  RH  074%=      5-min Rain = 0
KDO1 120621Z 17001KT M06/M10 A303 RMK A01 T10581097  RH  074%=      5-min Rain = 0
KDO1 120622Z 15001KT M06/M10 A303 RMK A01 T10581097  RH  074%=      5-min Rain = 0
KDO1 120623Z 18001KT M06/M10 A303 RMK A01 T10591097  RH  074%=      5-min Rain = 0
KDO1 120624Z 17001KT M06/M10 A303 RMK A01 T10591097  RH  075%=      5-min Rain = 0
KDO1 120625Z 15000KT M06/M10 A303 RMK A01 T10591097  RH  074%=      5-min Rain = 0
KDO1 120626Z 15000KT M06/M10 A303 RMK A01 T10591097  RH  074%=      5-min Rain = 0
KDO1 120627Z 00000KT M06/M10 A303 RMK A01 T10581097  RH  074%=      5-min Rain = 0
KDO1 120628Z 00000KT M06/M10 A303 RMK A01 T10581097  RH  074%=      5-min Rain = 0
KDO1 120629Z 22001KT M06/M10 A303 RMK A01 T10581096  RH  074%=      5-min Rain = 0
KDO1 120630Z 22001KT M06/M10 A303 RMK A01 T10571095  RH  074%=      5-min Rain = 0
KDO1 120631Z 23001KT M06/M10 A303 RMK A01 T10561095  RH  074%=      5-min Rain = 0
KDO1 120632Z 24000KT M06/M10 A303 RMK A01 T10561096  RH  073%=      5-min Rain = 0
KDO1 120633Z 24000KT M06/M10 A303 RMK A01 T10581100  RH  072%=      5-min Rain = 0
KDO1 120634Z 23001KT M06/M10 A303 RMK A01 T10611102  RH  073%=      5-min Rain = 0
KDO1 120635Z 08000KT M06/M10 A303 RMK A01 T10621101  RH  074%=      5-min Rain = 0
KDO1 120636Z 03001KT M06/M10 A303 RMK A01 T10631099  RH  075%=      5-min Rain = 0
KDO1 120637Z 03001KT M06/M10 A303 RMK A01 T10611097  RH  076%=      5-min Rain = 0
KDO1 120638Z 02003KT M06/M10 A303 RMK A01 T10601097  RH  075%=      5-min Rain = 0
KDO1 120639Z 02002KT M06/M10 A303 RMK A01 T10581096  RH  075%=      5-min Rain = 0
KDO1 120640Z 02002KT M06/M10 A303 RMK A01 T10571096  RH  074%=      5-min Rain = 0
KDO1 120641Z 02003KT M06/M10 A303 RMK A01 T10551095  RH  074%=      5-min Rain = 0
KDO1 120642Z 03004KT M05/M10 A303 RMK A01 T10541095  RH  073%=      5-min Rain = 0
KDO1 120643Z 04003KT M05/M10 A303 RMK A01 T10541095  RH  072%=      5-min Rain = 0
KDO1 120644Z 04004KT M05/M10 A303 RMK A01 T10531096  RH  072%=      5-min Rain = 0
KDO1 120645Z 03004KT M05/M10 A303 RMK A01 T10531096  RH  072%=      5-min Rain = 0
KDO1 120646Z 03005KT M05/M10 A303 RMK A01 T10531096  RH  072%=      5-min Rain = 0
KDO1 120647Z 03006KT M05/M10 A303 RMK A01 T10531096  RH  072%=      5-min Rain = 0
KDO1 120648Z 03006KT M05/M10 A3029 RMK A01 T10531097  RH  071%=      5-min Rain = 0
KDO1 120649Z 03007KT M05/M10 A3029 RMK A01 T10531097  RH  071%=      5-min Rain = 0
KDO1 120650Z 03007KT M05/M10 A3029 RMK A01 T10521097  RH  071%=      5-min Rain = 0
KDO1 120651Z 02007KT M05/M10 A3029 RMK A01 T10521097  RH  070%=      5-min Rain = 0
KDO1 120652Z 03008KT M05/M10 A3028 RMK A01 T10521098  RH  070%=      5-min Rain = 0
KDO1 120653Z 03008KT M05/M10 A3028 RMK A01 T10521098  RH  070%=      5-min Rain = 0
KDO1 120654Z 03007KT M05/M10 A3028 RMK A01 T10511098  RH  069%=      5-min Rain = 0
KDO1 120655Z 02006KT M05/M10 A3028 RMK A01 T10511099  RH  069%=      5-min Rain = 0
KDO1 120656Z 02006KT M05/M10 A3028 RMK A01 T10521099  RH  069%=      5-min Rain = 0
KDO1 120657Z 01005KT M05/M10 A3029 RMK A01 T10521099  RH  069%=      5-min Rain = 0
KDO1 120658Z 00004KT M05/M10 A3029 RMK A01 T10511099  RH  069%=      5-min Rain = 0
KDO1 120659Z 36006KT M05/M10 A3029 RMK A01 T10521100  RH  069%=      5-min Rain = 0
KDO1 120700Z 35005KT M05/M10 A3029 RMK A01 T10531101  RH  069%=      5-min Rain = 0
KDO1 120701Z 35005KT M05/M10 A3029 RMK A01 T10541102  RH  069%=      5-min Rain = 0
KDO1 120702Z 35006KT M05/M10 A3029 RMK A01 T10541102  RH  069%=      5-min Rain = 0
KDO1 120703Z 35006KT M05/M10 A3029 RMK A01 T10541102  RH  069%=      5-min Rain = 0
KDO1 120704Z 35006KT M06/M10 A303 RMK A01 T10551102  RH  069%=      5-min Rain = 0
KDO1 120705Z 35005KT M06/M10 A303 RMK A01 T10551102  RH  069%=      5-min Rain = 0
KDO1 120706Z 35006KT M06/M10 A3029 RMK A01 T10561103  RH  069%=      5-min Rain = 0
KDO1 120707Z 36007KT M06/M10 A3029 RMK A01 T10571103  RH  070%=      5-min Rain = 0
KDO1 120708Z 36007KT M06/M10 A3029 RMK A01 T10571103  RH  070%=      5-min Rain = 0
KDO1 120709Z 35007KT M06/M10 A3029 RMK A01 T10571103  RH  070%=      5-min Rain = 0
KDO1 120710Z 36008KT M06/M10 A3029 RMK A01 T10571104  RH  070%=      5-min Rain = 0
KDO1 120711Z 00008KT M06/M10 A3029 RMK A01 T10571103  RH  070%=      5-min Rain = 0
KDO1 120712Z 35008KT M06/M10 A3029 RMK A01 T10571104  RH  069%=      5-min Rain = 0
KDO1 120713Z 36008KT M06/M10 A3029 RMK A01 T10571104  RH  069%=      5-min Rain = 0
KDO1 120714Z 36008KT M06/M10 A3029 RMK A01 T10561104  RH  069%=      5-min Rain = 0
KDO1 120715Z 35008KT M06/M10 A3029 RMK A01 T10561104  RH  069%=      5-min Rain = 0
KDO1 120716Z 35007KT M06/M10 A3029 RMK A01 T10561104  RH  069%=      5-min Rain = 0
KDO1 120717Z 35008KT M06/M10 A3029 RMK A01 T10561104  RH  069%=      5-min Rain = 0
KDO1 120718Z 35007KT M06/M11 A3029 RMK A01 T10561105  RH  069%=      5-min Rain = 0
KDO1 120719Z 34007KT M06/M11 A3029 RMK A01 T10571105  RH  069%=      5-min Rain = 0
KDO1 120720Z 35008KT M06/M11 A3029 RMK A01 T10571106  RH  069%=      5-min Rain = 0
KDO1 120721Z 34007KT M06/M11 A3029 RMK A01 T10581106  RH  069%=      5-min Rain = 0
KDO1 120722Z 34007KT M06/M11 A3029 RMK A01 T10591106  RH  069%=      5-min Rain = 0
KDO1 120723Z 34006KT M06/M11 A3029 RMK A01 T10591106  RH  069%=      5-min Rain = 0
KDO1 120724Z 34007KT M06/M11 A3029 RMK A01 T10581106  RH  069%=      5-min Rain = 0
KDO1 120725Z 34006KT M06/M11 A3029 RMK A01 T10591107  RH  069%=      5-min Rain = 0
KDO1 120726Z 33006KT M06/M11 A3029 RMK A01 T10581106  RH  069%=      5-min Rain = 0
KDO1 120727Z 33006KT M06/M11 A3029 RMK A01 T10591107  RH  069%=      5-min Rain = 0
KDO1 120728Z 33006KT M06/M11 A3029 RMK A01 T10591107  RH  069%=      5-min Rain = 0
KDO1 120729Z 33006KT M06/M11 A3029 RMK A01 T10591107  RH  069%=      5-min Rain = 0
KDO1 120730Z 33006KT M06/M11 A303 RMK A01 T10601107  RH  069%=      5-min Rain = 0
KDO1 120731Z 33006KT M06/M11 A3029 RMK A01 T10601107  RH  069%=      5-min Rain = 0
KDO1 120732Z 33006KT M06/M11 A3029 RMK A01 T10591107  RH  069%=      5-min Rain = 0
KDO1 120733Z 34005KT M06/M11 A3029 RMK A01 T10591107  RH  069%=      5-min Rain = 0
KDO1 120734Z 34006KT M06/M11 A3029 RMK A01 T10601108  RH  069%=      5-min Rain = 0
KDO1 120735Z 34006KT M06/M11 A3029 RMK A01 T10601108  RH  069%=      5-min Rain = 0
KDO1 120736Z 35006KT M06/M11 A3029 RMK A01 T10601108  RH  069%=      5-min Rain = 0
KDO1 120737Z 36006KT M06/M11 A3029 RMK A01 T10601108  RH  069%=      5-min Rain = 0
KDO1 120738Z 35006KT M06/M11 A3029 RMK A01 T10601108  RH  069%=      5-min Rain = 0
KDO1 120739Z 35006KT M06/M11 A3029 RMK A01 T10601108  RH  069%=      5-min Rain = 0
KDO1 120740Z 35006KT M06/M11 A3029 RMK A01 T10601108  RH  069%=      5-min Rain = 0
KDO1 120741Z 35005KT M06/M11 A3029 RMK A01 T10601108  RH  069%=      5-min Rain = 0
KDO1 120742Z 35006KT M06/M11 A3029 RMK A01 T10611108  RH  069%=      5-min Rain = 0
KDO1 120743Z 35005KT M06/M11 A3029 RMK A01 T10611108  RH  069%=      5-min Rain = 0
KDO1 120744Z 35005KT M06/M11 A3029 RMK A01 T10611108  RH  069%=      5-min Rain = 0
KDO1 120745Z 35006KT M06/M11 A3029 RMK A01 T10621109  RH  069%=      5-min Rain = 0
KDO1 120746Z 35006KT M06/M11 A3029 RMK A01 T10621109  RH  069%=      5-min Rain = 0
KDO1 120747Z 35006KT M06/M11 A3029 RMK A01 T10621109  RH  069%=      5-min Rain = 0
KDO1 120748Z 35006KT M06/M11 A3029 RMK A01 T10621109  RH  069%=      5-min Rain = 0
KDO1 120749Z 35006KT M06/M11 A3028 RMK A01 T10621109  RH  069%=      5-min Rain = 0
KDO1 120750Z 35006KT M06/M11 A3028 RMK A01 T10631109  RH  070%=      5-min Rain = 0
KDO1 120751Z 35007KT M06/M11 A3028 RMK A01 T10631110  RH  070%=      5-min Rain = 0
KDO1 120752Z 35007KT M06/M11 A3028 RMK A01 T10631109  RH  070%=      5-min Rain = 0
KDO1 120753Z 35006KT M06/M11 A3028 RMK A01 T10631109  RH  070%=      5-min Rain = 0
KDO1 120754Z 35006KT M06/M11 A3028 RMK A01 T10641110  RH  070%=      5-min Rain = 0
KDO1 120755Z 35007KT M06/M11 A3028 RMK A01 T10641110  RH  070%=      5-min Rain = 0
KDO1 120756Z 35007KT M06/M11 A3028 RMK A01 T10641109  RH  070%=      5-min Rain = 0
KDO1 120757Z 35007KT M06/M11 A3029 RMK A01 T10641110  RH  070%=      5-min Rain = 0
KDO1 120758Z 35007KT M06/M11 A3028 RMK A01 T10641110  RH  070%=      5-min Rain = 0
KDO1 120759Z 35007KT M06/M11 A3028 RMK A01 T10641110  RH  070%=      5-min Rain = 0
KDO1 120800Z 36008KT M06/M11 A3028 RMK A01 T10641110  RH  070%=      5-min Rain = 0
KDO1 120801Z 35008KT M06/M11 A3028 RMK A01 T10641110  RH  070%=      5-min Rain = 0
KDO1 120802Z 35008KT M06/M11 A3028 RMK A01 T10641110  RH  070%=      5-min Rain = 0
KDO1 120803Z 36007KT M06/M11 A3028 RMK A01 T10641110  RH  070%=      5-min Rain = 0
KDO1 120804Z 35007KT M06/M11 A3028 RMK A01 T10641110  RH  070%=      5-min Rain = 0
KDO1 120805Z 35007KT M06/M11 A3028 RMK A01 T10641110  RH  070%=      5-min Rain = 0
KDO1 120806Z 35006KT M06/M11 A3028 RMK A01 T10641110  RH  070%=      5-min Rain = 0
KDO1 120807Z 36006KT M07/M11 A3028 RMK A01 T10651110  RH  070%=      5-min Rain = 0
KDO1 120808Z 35005KT M07/M11 A3028 RMK A01 T10651111  RH  070%=      5-min Rain = 0
KDO1 120809Z 36005KT M07/M11 A3029 RMK A01 T10661111  RH  070%=      5-min Rain = 0
KDO1 120810Z 00005KT M07/M11 A3029 RMK A01 T10671111  RH  071%=      5-min Rain = 0
KDO1 120811Z 36004KT M07/M11 A3029 RMK A01 T10671111  RH  071%=      5-min Rain = 0
KDO1 120812Z 01004KT M07/M11 A3029 RMK A01 T10671111  RH  071%=      5-min Rain = 0
KDO1 120813Z 01003KT M07/M11 A3029 RMK A01 T10671111  RH  071%=      5-min Rain = 0
KDO1 120814Z 01003KT M07/M11 A3029 RMK A01 T10671111  RH  071%=      5-min Rain = 0
KDO1 120815Z 02003KT M07/M11 A3029 RMK A01 T10681111  RH  071%=      5-min Rain = 0
KDO1 120816Z 02001KT M07/M11 A3029 RMK A01 T10681111  RH  071%=      5-min Rain = 0
KDO1 120817Z 01002KT M07/M11 A3029 RMK A01 T10681111  RH  071%=      5-min Rain = 0
KDO1 120818Z 01001KT M07/M11 A3029 RMK A01 T10691111  RH  072%=      5-min Rain = 0
KDO1 120819Z 00000KT M07/M11 A3029 RMK A01 T10691111  RH  072%=      5-min Rain = 0
KDO1 120820Z 34001KT M07/M11 A3029 RMK A01 T10691111  RH  072%=      5-min Rain = 0
KDO1 120821Z 30001KT M07/M11 A3029 RMK A01 T10691111  RH  072%=      5-min Rain = 0
KDO1 120822Z 28001KT M07/M11 A3029 RMK A01 T10701111  RH  072%=      5-min Rain = 0
KDO1 120823Z 28002KT M07/M11 A3029 RMK A01 T10701112  RH  072%=      5-min Rain = 0
KDO1 120824Z 26003KT M07/M11 A3029 RMK A01 T10701112  RH  072%=      5-min Rain = 0
KDO1 120825Z 26003KT M07/M11 A3029 RMK A01 T10711113  RH  072%=      5-min Rain = 0
KDO1 120826Z 26003KT M07/M12 A3029 RMK A01 T10731115  RH  072%=      5-min Rain = 0
KDO1 120827Z 29003KT M07/M11 A3029 RMK A01 T10741114  RH  073%=      5-min Rain = 0
KDO1 120828Z 29003KT M07/M11 A3029 RMK A01 T10731112  RH  073%=      5-min Rain = 0
KDO1 120829Z 29003KT M07/M11 A3029 RMK A01 T10721112  RH  073%=      5-min Rain = 0
KDO1 120830Z 31003KT M07/M11 A3029 RMK A01 T10721113  RH  073%=      5-min Rain = 0
KDO1 120831Z 32004KT M07/M11 A3029 RMK A01 T10711112  RH  073%=      5-min Rain = 0
KDO1 120832Z 32004KT M07/M11 A3029 RMK A01 T10701111  RH  073%=      5-min Rain = 0
KDO1 120833Z 32005KT M07/M11 A3028 RMK A01 T10691111  RH  072%=      5-min Rain = 0
KDO1 120834Z 32005KT M07/M11 A3028 RMK A01 T10691111  RH  072%=      5-min Rain = 0
KDO1 120835Z 33005KT M07/M11 A3028 RMK A01 T10681111  RH  072%=      5-min Rain = 0
KDO1 120836Z 34004KT M07/M11 A3028 RMK A01 T10681111  RH  071%=      5-min Rain = 0
KDO1 120837Z 33005KT M07/M11 A3028 RMK A01 T10671110  RH  071%=      5-min Rain = 0
KDO1 120838Z 33004KT M07/M11 A3028 RMK A01 T10671111  RH  071%=      5-min Rain = 0
KDO1 120839Z 33004KT M07/M11 A3028 RMK A01 T10671111  RH  071%=      5-min Rain = 0
KDO1 120840Z 33004KT M07/M11 A3028 RMK A01 T10671111  RH  071%=      5-min Rain = 0
KDO1 120841Z 32004KT M07/M11 A3028 RMK A01 T10671111  RH  071%=      5-min Rain = 0
KDO1 120842Z 31003KT M07/M11 A3028 RMK A01 T10671111  RH  071%=      5-min Rain = 0
KDO1 120843Z 29003KT M07/M11 A3028 RMK A01 T10671111  RH  071%=      5-min Rain = 0
KDO1 120844Z 29003KT M07/M11 A3028 RMK A01 T10681111  RH  071%=      5-min Rain = 0
KDO1 120845Z 29002KT M07/M11 A3028 RMK A01 T10681111  RH  071%=      5-min Rain = 0
KDO1 120846Z 29002KT M07/M11 A3027 RMK A01 T10691112  RH  071%=      5-min Rain = 0
KDO1 120847Z 30002KT M07/M11 A3027 RMK A01 T10691112  RH  072%=      5-min Rain = 0
KDO1 120848Z 29003KT M07/M11 A3027 RMK A01 T10691112  RH  072%=      5-min Rain = 0
KDO1 120849Z 30003KT M07/M11 A3027 RMK A01 T10701112  RH  072%=      5-min Rain = 0
KDO1 120850Z 30003KT M07/M11 A3027 RMK A01 T10701112  RH  072%=      5-min Rain = 0
KDO1 120851Z 31002KT M07/M11 A3027 RMK A01 T10691112  RH  072%=      5-min Rain = 0
KDO1 120852Z 31001KT M07/M11 A3027 RMK A01 T10691112  RH  072%=      5-min Rain = 0
KDO1 120853Z 33001KT M07/M11 A3027 RMK A01 T10701112  RH  072%=      5-min Rain = 0
KDO1 120854Z 33001KT M07/M11 A3027 RMK A01 T10701112  RH  072%=      5-min Rain = 0
KDO1 120855Z 33001KT M07/M11 A3027 RMK A01 T10701112  RH  072%=      5-min Rain = 0
KDO1 120856Z 33001KT M07/M11 A3027 RMK A01 T10701112  RH  072%=      5-min Rain = 0
KDO1 120857Z 33001KT M07/M11 A3027 RMK A01 T10701112  RH  072%=      5-min Rain = 0
KDO1 120858Z 32001KT M07/M11 A3027 RMK A01 T10701112  RH  072%=      5-min Rain = 0
KDO1 120859Z 32001KT M07/M11 A3027 RMK A01 T10701113  RH  072%=      5-min Rain = 0
KDO1 120900Z 32001KT M07/M11 A3027 RMK A01 T10711113  RH  072%=      5-min Rain = 0
KDO1 120901Z 33001KT M07/M11 A3027 RMK A01 T10711113  RH  072%=      5-min Rain = 0
KDO1 120902Z 33001KT M07/M11 A3027 RMK A01 T10721113  RH  072%=      5-min Rain = 0
KDO1 120903Z 33002KT M07/M11 A3026 RMK A01 T10721113  RH  072%=      5-min Rain = 0
KDO1 120904Z 34002KT M07/M11 A3026 RMK A01 T10721114  RH  072%=      5-min Rain = 0
KDO1 120905Z 35003KT M07/M12 A3026 RMK A01 T10731115  RH  072%=      5-min Rain = 0
KDO1 120906Z 34003KT M07/M12 A3026 RMK A01 T10741115  RH  072%=      5-min Rain = 0
KDO1 120907Z 34003KT M07/M12 A3026 RMK A01 T10741115  RH  073%=      5-min Rain = 0
KDO1 120908Z 34004KT M07/M12 A3026 RMK A01 T10741115  RH  073%=      5-min Rain = 0
KDO1 120909Z 34005KT M08/M12 A3027 RMK A01 T10751115  RH  073%=      5-min Rain = 0
KDO1 120910Z 34004KT M08/M12 A3027 RMK A01 T10751115  RH  073%=      5-min Rain = 0
KDO1 120911Z 33004KT M08/M12 A3027 RMK A01 T10761116  RH  073%=      5-min Rain = 0
KDO1 120912Z 33005KT M08/M12 A3027 RMK A01 T10771117  RH  073%=      5-min Rain = 0
KDO1 120913Z 33005KT M08/M12 A3027 RMK A01 T10781118  RH  073%=      5-min Rain = 0
KDO1 120914Z 33004KT M08/M12 A3027 RMK A01 T10791119  RH  073%=      5-min Rain = 0
KDO1 120915Z 34003KT M08/M12 A3027 RMK A01 T10801119  RH  074%=      5-min Rain = 0
KDO1 120916Z 35003KT M08/M12 A3027 RMK A01 T10811119  RH  074%=      5-min Rain = 0
KDO1 120917Z 35002KT M08/M12 A3027 RMK A01 T10811118  RH  075%=      5-min Rain = 0
KDO1 120918Z 35002KT M08/M12 A3027 RMK A01 T10801116  RH  075%=      5-min Rain = 0
KDO1 120919Z 35001KT M08/M12 A3027 RMK A01 T10801116  RH  075%=      5-min Rain = 0
KDO1 120920Z 35002KT M08/M12 A3027 RMK A01 T10801116  RH  075%=      5-min Rain = 0
KDO1 120921Z 36002KT M08/M12 A3027 RMK A01 T10791115  RH  075%=      5-min Rain = 0
KDO1 120922Z 36002KT M08/M12 A3027 RMK A01 T10791116  RH  075%=      5-min Rain = 0
KDO1 120923Z 35002KT M08/M12 A3027 RMK A01 T10791116  RH  075%=      5-min Rain = 0
KDO1 120924Z 35002KT M08/M12 A3027 RMK A01 T10791115  RH  075%=      5-min Rain = 0
KDO1 120925Z 35002KT M08/M12 A3027 RMK A01 T10781115  RH  075%=      5-min Rain = 0
KDO1 120926Z 35003KT M08/M12 A3027 RMK A01 T10781115  RH  075%=      5-min Rain = 0
KDO1 120927Z 35003KT M08/M11 A3027 RMK A01 T10781114  RH  075%=      5-min Rain = 0
KDO1 120928Z 35003KT M08/M11 A3027 RMK A01 T10781114  RH  075%=      5-min Rain = 0
KDO1 120929Z 34003KT M08/M11 A3027 RMK A01 T10781114  RH  075%=      5-min Rain = 0
KDO1 120930Z 34003KT M08/M12 A3027 RMK A01 T10781115  RH  075%=      5-min Rain = 0
KDO1 120931Z 33003KT M08/M12 A3027 RMK A01 T10781115  RH  075%=      5-min Rain = 0
KDO1 120932Z 33003KT M08/M12 A3027 RMK A01 T10781115  RH  075%=      5-min Rain = 0
KDO1 120933Z 33003KT M08/M12 A3027 RMK A01 T10791116  RH  075%=      5-min Rain = 0
KDO1 120934Z 34002KT M08/M12 A3027 RMK A01 T10801117  RH  075%=      5-min Rain = 0
KDO1 120935Z 34001KT M08/M12 A3027 RMK A01 T10801116  RH  075%=      5-min Rain = 0
KDO1 120936Z 35000KT M08/M12 A3027 RMK A01 T10811117  RH  075%=      5-min Rain = 0
KDO1 120937Z 34001KT M08/M12 A3027 RMK A01 T10811117  RH  075%=      5-min Rain = 0
KDO1 120938Z 34001KT M08/M12 A3027 RMK A01 T10811116  RH  076%=      5-min Rain = 0
KDO1 120939Z 34001KT M08/M12 A3027 RMK A01 T10811116  RH  076%=      5-min Rain = 0
KDO1 120940Z 34002KT M08/M12 A3027 RMK A01 T10811116  RH  076%=      5-min Rain = 0
KDO1 120941Z 34002KT M08/M12 A3027 RMK A01 T10811116  RH  076%=      5-min Rain = 0
KDO1 120942Z 34002KT M08/M12 A3027 RMK A01 T10811116  RH  076%=      5-min Rain = 0
KDO1 120943Z 34003KT M08/M12 A3027 RMK A01 T10811116  RH  076%=      5-min Rain = 0
KDO1 120944Z 34003KT M08/M12 A3027 RMK A01 T10811116  RH  076%=      5-min Rain = 0
KDO1 120945Z 34003KT M08/M12 A3027 RMK A01 T10801115  RH  076%=      5-min Rain = 0
KDO1 120946Z 33004KT M08/M12 A3027 RMK A01 T10801115  RH  076%=      5-min Rain = 0
KDO1 120947Z 33004KT M08/M12 A3027 RMK A01 T10801116  RH  076%=      5-min Rain = 0
KDO1 120948Z 33004KT M08/M12 A3027 RMK A01 T10801116  RH  076%=      5-min Rain = 0
KDO1 120949Z 34004KT M08/M12 A3027 RMK A01 T10801115  RH  076%=      5-min Rain = 0
KDO1 120950Z 34004KT M08/M12 A3027 RMK A01 T10801115  RH  075%=      5-min Rain = 0
KDO1 120951Z 35004KT M08/M12 A3027 RMK A01 T10801116  RH  075%=      5-min Rain = 0
KDO1 120952Z 35004KT M08/M12 A3027 RMK A01 T10801116  RH  075%=      5-min Rain = 0
KDO1 120953Z 35004KT M08/M12 A3027 RMK A01 T10801116  RH  075%=      5-min Rain = 0
KDO1 120954Z 35004KT M08/M12 A3027 RMK A01 T10801117  RH  075%=      5-min Rain = 0
KDO1 120955Z 00005KT M08/M12 A3027 RMK A01 T10811117  RH  075%=      5-min Rain = 0
KDO1 120956Z 00005KT M08/M12 A3027 RMK A01 T10811117  RH  075%=      5-min Rain = 0
KDO1 120957Z 00006KT M08/M12 A3027 RMK A01 T10821118  RH  075%=      5-min Rain = 0
KDO1 120958Z 00006KT M08/M12 A3027 RMK A01 T10821118  RH  075%=      5-min Rain = 0
KDO1 120959Z 00007KT M08/M12 A3027 RMK A01 T10821118  RH  075%=      5-min Rain = 0
KDO1 121000Z 36007KT M08/M12 A3027 RMK A01 T10831118  RH  076%=      5-min Rain = 0
KDO1 121001Z 35007KT M08/M12 A3027 RMK A01 T10841119  RH  076%=      5-min Rain = 0
KDO1 121002Z 00007KT M08/M12 A3027 RMK A01 T10841119  RH  076%=      5-min Rain = 0
KDO1 121003Z 00007KT M09/M12 A3027 RMK A01 T10851119  RH  076%=      5-min Rain = 0
KDO1 121004Z 00007KT M09/M12 A3027 RMK A01 T10851120  RH  076%=      5-min Rain = 0
KDO1 121005Z 00007KT M09/M12 A3027 RMK A01 T10861120  RH  076%=      5-min Rain = 0
KDO1 121006Z 00007KT M09/M12 A3027 RMK A01 T10861120  RH  077%=      5-min Rain = 0
KDO1 121007Z 00006KT M09/M12 A3027 RMK A01 T10871120  RH  077%=      5-min Rain = 0
KDO1 121008Z 01006KT M09/M12 A3027 RMK A01 T10871120  RH  077%=      5-min Rain = 0
KDO1 121009Z 01007KT M09/M12 A3027 RMK A01 T10861118  RH  077%=      5-min Rain = 0
KDO1 121010Z 01007KT M09/M12 A3027 RMK A01 T10851117  RH  077%=      5-min Rain = 0
KDO1 121011Z 01007KT M08/M12 A3027 RMK A01 T10841117  RH  077%=      5-min Rain = 0
KDO1 121012Z 02007KT M08/M12 A3027 RMK A01 T10831117  RH  077%=      5-min Rain = 0
KDO1 121013Z 01007KT M08/M12 A3027 RMK A01 T10831117  RH  077%=      5-min Rain = 0
KDO1 121014Z 02006KT M08/M12 A3027 RMK A01 T10831117  RH  076%=      5-min Rain = 0
KDO1 121015Z 02005KT M08/M12 A3027 RMK A01 T10831117  RH  076%=      5-min Rain = 0
KDO1 121016Z 02006KT M08/M12 A3027 RMK A01 T10831118  RH  076%=      5-min Rain = 0
KDO1 121017Z 02005KT M08/M12 A3027 RMK A01 T10841118  RH  076%=      5-min Rain = 0
KDO1 121018Z 02005KT M09/M12 A3027 RMK A01 T10861119  RH  077%=      5-min Rain = 0
KDO1 121019Z 02004KT M09/M12 A3027 RMK A01 T10861120  RH  077%=      5-min Rain = 0
KDO1 121020Z 01004KT M09/M12 A3027 RMK A01 T10871120  RH  077%=      5-min Rain = 0
KDO1 121021Z 02005KT M09/M12 A3027 RMK A01 T10881120  RH  077%=      5-min Rain = 0
KDO1 121022Z 01005KT M09/M12 A3027 RMK A01 T10881120  RH  078%=      5-min Rain = 0
KDO1 121023Z 01004KT M09/M12 A3027 RMK A01 T10891121  RH  078%=      5-min Rain = 0
KDO1 121024Z 01004KT M09/M12 A3027 RMK A01 T10901121  RH  078%=      5-min Rain = 0
KDO1 121025Z 01003KT M09/M12 A3027 RMK A01 T10901121  RH  078%=      5-min Rain = 0
KDO1 121026Z 01003KT M09/M12 A3027 RMK A01 T10911122  RH  078%=      5-min Rain = 0
KDO1 121027Z 00003KT M09/M12 A3027 RMK A01 T10921123  RH  078%=      5-min Rain = 0
KDO1 121028Z 35002KT M09/M12 A3028 RMK A01 T10931124  RH  078%=      5-min Rain = 0
KDO1 121029Z 36001KT M09/M12 A3028 RMK A01 T10931124  RH  078%=      5-min Rain = 0
KDO1 121030Z 02001KT M10/M13 A3028 RMK A01 T10951125  RH  079%=      5-min Rain = 0
KDO1 121031Z 02001KT M10/M13 A3027 RMK A01 T10951125  RH  079%=      5-min Rain = 0
KDO1 121032Z 04001KT M10/M13 A3027 RMK A01 T10951125  RH  079%=      5-min Rain = 0
KDO1 121033Z 03001KT M10/M13 A3027 RMK A01 T10961125  RH  079%=      5-min Rain = 0
KDO1 121034Z 02001KT M10/M12 A3027 RMK A01 T10961124  RH  079%=      5-min Rain = 0
KDO1 121035Z 02002KT M10/M12 A3027 RMK A01 T10961124  RH  080%=      5-min Rain = 0
KDO1 121036Z 03002KT M10/M13 A3027 RMK A01 T10961125  RH  080%=      5-min Rain = 0
KDO1 121037Z 02002KT M10/M12 A3027 RMK A01 T10961124  RH  080%=      5-min Rain = 0
KDO1 121038Z 00001KT M10/M12 A3027 RMK A01 T10971124  RH  080%=      5-min Rain = 0
KDO1 121039Z 34001KT M10/M13 A3027 RMK A01 T10971125  RH  080%=      5-min Rain = 0
KDO1 121040Z 32001KT M10/M12 A3027 RMK A01 T10971124  RH  080%=      5-min Rain = 0
KDO1 121041Z 32002KT M10/M12 A3027 RMK A01 T10971124  RH  081%=      5-min Rain = 0
KDO1 121042Z 32002KT M10/M12 A3027 RMK A01 T10971124  RH  081%=      5-min Rain = 0
KDO1 121043Z 30002KT M10/M12 A3027 RMK A01 T10961123  RH  081%=      5-min Rain = 0
KDO1 121044Z 30003KT M10/M12 A3027 RMK A01 T10971124  RH  081%=      5-min Rain = 0
KDO1 121045Z 30004KT M10/M12 A3027 RMK A01 T10971124  RH  081%=      5-min Rain = 0
KDO1 121046Z 30004KT M10/M12 A3028 RMK A01 T10971124  RH  081%=      5-min Rain = 0
KDO1 121047Z 30004KT M10/M12 A3028 RMK A01 T10961122  RH  081%=      5-min Rain = 0
KDO1 121048Z 30004KT M10/M12 A3028 RMK A01 T10951122  RH  081%=      5-min Rain = 0
KDO1 121049Z 30003KT M10/M12 A3028 RMK A01 T10951123  RH  081%=      5-min Rain = 0
KDO1 121050Z 29003KT M09/M12 A3027 RMK A01 T10941122  RH  081%=      5-min Rain = 0
KDO1 121051Z 28002KT M09/M12 A3027 RMK A01 T10941121  RH  080%=      5-min Rain = 0
KDO1 121052Z 27002KT M09/M12 A3027 RMK A01 T10931121  RH  080%=      5-min Rain = 0
KDO1 121053Z 26002KT M09/M12 A3027 RMK A01 T10921120  RH  080%=      5-min Rain = 0
KDO1 121054Z 25003KT M09/M12 A3027 RMK A01 T10921121  RH  079%=      5-min Rain = 0
KDO1 121055Z 25003KT M09/M12 A3027 RMK A01 T10931123  RH  079%=      5-min Rain = 0
KDO1 121056Z 25003KT M09/M12 A3027 RMK A01 T10941124  RH  079%=      5-min Rain = 0
KDO1 121057Z 26002KT M10/M12 A3027 RMK A01 T10951124  RH  079%=      5-min Rain = 0
KDO1 121058Z 27002KT M10/M12 A3027 RMK A01 T10951123  RH  080%=      5-min Rain = 0
KDO1 121059Z 28002KT M10/M12 A3027 RMK A01 T10951122  RH  081%=      5-min Rain = 0
KDO1 121100Z 28002KT M09/M12 A3027 RMK A01 T10941122  RH  080%=      5-min Rain = 0
KDO1 121101Z 29002KT M09/M12 A3027 RMK A01 T10941122  RH  080%=      5-min Rain = 0
KDO1 121102Z 30002KT M09/M12 A3027 RMK A01 T10941122  RH  080%=      5-min Rain = 0
KDO1 121103Z 30002KT M09/M12 A3027 RMK A01 T10931121  RH  080%=      5-min Rain = 0
KDO1 121104Z 26002KT M09/M12 A3027 RMK A01 T10911119  RH  080%=      5-min Rain = 0
KDO1 121105Z 26002KT M09/M12 A3027 RMK A01 T10901119  RH  079%=      5-min Rain = 0
KDO1 121106Z 24002KT M09/M12 A3027 RMK A01 T10891120  RH  078%=      5-min Rain = 0
KDO1 121107Z 25003KT M09/M12 A3027 RMK A01 T10921123  RH  078%=      5-min Rain = 0
KDO1 121108Z 26003KT M09/M13 A3027 RMK A01 T10931125  RH  078%=      5-min Rain = 0
KDO1 121109Z 27003KT M09/M12 A3027 RMK A01 T10941124  RH  079%=      5-min Rain = 0
KDO1 121110Z 28003KT M09/M12 A3027 RMK A01 T10931123  RH  079%=      5-min Rain = 0
KDO1 121111Z 28003KT M09/M12 A3027 RMK A01 T10931122  RH  079%=      5-min Rain = 0
KDO1 121112Z 29003KT M09/M12 A3027 RMK A01 T10931122  RH  079%=      5-min Rain = 0
KDO1 121113Z 30003KT M09/M12 A3027 RMK A01 T10931123  RH  079%=      5-min Rain = 0
KDO1 121114Z 29003KT M09/M12 A3027 RMK A01 T10931123  RH  079%=      5-min Rain = 0
KDO1 121115Z 29003KT M09/M12 A3027 RMK A01 T10921122  RH  079%=      5-min Rain = 0
KDO1 121116Z 27003KT M09/M12 A3028 RMK A01 T10931124  RH  079%=      5-min Rain = 0
KDO1 121117Z 28003KT M10/M13 A3028 RMK A01 T10951125  RH  079%=      5-min Rain = 0
KDO1 121118Z 28004KT M10/M12 A3028 RMK A01 T10951124  RH  079%=      5-min Rain = 0
KDO1 121119Z 28004KT M10/M12 A3028 RMK A01 T10951124  RH  079%=      5-min Rain = 0
KDO1 121120Z 28005KT M10/M12 A3028 RMK A01 T10951124  RH  079%=      5-min Rain = 0
KDO1 121121Z 28005KT M10/M13 A3028 RMK A01 T10951125  RH  079%=      5-min Rain = 0
KDO1 121122Z 28004KT M10/M13 A3028 RMK A01 T10961125  RH  079%=      5-min Rain = 0
KDO1 121123Z 28004KT M10/M12 A3028 RMK A01 T10951124  RH  080%=      5-min Rain = 0
KDO1 121124Z 27004KT M10/M12 A3028 RMK A01 T10961124  RH  080%=      5-min Rain = 0
KDO1 121125Z 26004KT M10/M12 A3028 RMK A01 T10961124  RH  080%=      5-min Rain = 0
KDO1 121126Z 26004KT M10/M12 A3028 RMK A01 T10951123  RH  080%=      5-min Rain = 0
KDO1 121127Z 25004KT M10/M12 A3028 RMK A01 T10951124  RH  080%=      5-min Rain = 0
KDO1 121128Z 25004KT M10/M12 A3028 RMK A01 T10951123  RH  080%=      5-min Rain = 0
KDO1 121129Z 25004KT M10/M12 A3028 RMK A01 T10951123  RH  080%=      5-min Rain = 0
KDO1 121130Z 24004KT M10/M12 A3028 RMK A01 T10951123  RH  080%=      5-min Rain = 0
KDO1 121131Z 24004KT M10/M12 A3028 RMK A01 T10961124  RH  080%=      5-min Rain = 0
KDO1 121132Z 25004KT M10/M13 A3029 RMK A01 T10981126  RH  080%=      5-min Rain = 0
KDO1 121133Z 24004KT M10/M13 A3029 RMK A01 T10991126  RH  080%=      5-min Rain = 0
KDO1 121134Z 24004KT M10/M13 A3029 RMK A01 T10991126  RH  081%=      5-min Rain = 0
KDO1 121135Z 24004KT M10/M13 A3029 RMK A01 T11001126  RH  081%=      5-min Rain = 0
KDO1 121136Z 24004KT M10/M12 A3029 RMK A01 T10991124  RH  082%=      5-min Rain = 0
KDO1 121137Z 24005KT M10/M12 A3029 RMK A01 T10991124  RH  082%=      5-min Rain = 0
KDO1 121138Z 25005KT M10/M12 A3029 RMK A01 T10991124  RH  082%=      5-min Rain = 0
KDO1 121139Z 25004KT M10/M13 A3029 RMK A01 T10991125  RH  081%=      5-min Rain = 0
KDO1 121140Z 25004KT M10/M13 A3029 RMK A01 T11001126  RH  081%=      5-min Rain = 0
KDO1 121141Z 26004KT M10/M13 A3029 RMK A01 T11001126  RH  082%=      5-min Rain = 0
KDO1 121142Z 26004KT M10/M13 A3029 RMK A01 T11001125  RH  082%=      5-min Rain = 0
KDO1 121143Z 27003KT M10/M13 A3029 RMK A01 T11011125  RH  082%=      5-min Rain = 0
KDO1 121144Z 26003KT M10/M13 A3029 RMK A01 T11011125  RH  082%=      5-min Rain = 0
KDO1 121145Z 26003KT M10/M13 A3029 RMK A01 T11001125  RH  082%=      5-min Rain = 0
KDO1 121146Z 26004KT M10/M12 A3029 RMK A01 T11001124  RH  083%=      5-min Rain = 0
KDO1 121147Z 26004KT M10/M12 A3029 RMK A01 T11001124  RH  083%=      5-min Rain = 0
KDO1 121148Z 27003KT M10/M12 A3029 RMK A01 T10991123  RH  083%=      5-min Rain = 0
KDO1 121149Z 27003KT M10/M12 A3028 RMK A01 T10991123  RH  083%=      5-min Rain = 0
KDO1 121150Z 28003KT M10/M12 A3028 RMK A01 T10981122  RH  082%=      5-min Rain = 0
KDO1 121151Z 29003KT M10/M12 A3028 RMK A01 T10981123  RH  082%=      5-min Rain = 0
KDO1 121152Z 29003KT M10/M12 A3028 RMK A01 T10961121  RH  082%=      5-min Rain = 0
KDO1 121153Z 29003KT M10/M12 A3028 RMK A01 T10961121  RH  082%=      5-min Rain = 0
KDO1 121154Z 29004KT M10/M12 A3028 RMK A01 T10951121  RH  081%=      5-min Rain = 0
KDO1 121155Z 29004KT M09/M12 A3028 RMK A01 T10941121  RH  081%=      5-min Rain = 0
KDO1 121156Z 29004KT M09/M12 A3028 RMK A01 T10941122  RH  080%=      5-min Rain = 0
KDO1 121157Z 29004KT M09/M12 A3028 RMK A01 T10931121  RH  080%=      5-min Rain = 0
KDO1 121158Z 30004KT M09/M12 A3028 RMK A01 T10921120  RH  080%=      5-min Rain = 0
KDO1 121159Z 30003KT M09/M12 A3028 RMK A01 T10921122  RH  079%=      5-min Rain = 0
KDO1 121200Z 30003KT M09/M12 A3028 RMK A01 T10921122  RH  079%=      5-min Rain = 0
KDO1 121201Z 30003KT M09/M12 A3028 RMK A01 T10921122  RH  079%=      5-min Rain = 0
KDO1 121202Z 29003KT M09/M12 A3028 RMK A01 T10911121  RH  079%=      5-min Rain = 0
KDO1 121203Z 29003KT M09/M12 A3028 RMK A01 T10911121  RH  079%=      5-min Rain = 0
KDO1 121204Z 29003KT M09/M12 A3028 RMK A01 T10911121  RH  078%=      5-min Rain = 0
KDO1 121205Z 30003KT M09/M12 A3028 RMK A01 T10911122  RH  078%=      5-min Rain = 0
KDO1 121206Z 31003KT M09/M12 A3028 RMK A01 T10911123  RH  078%=      5-min Rain = 0
KDO1 121207Z 31003KT M09/M13 A3028 RMK A01 T10931125  RH  077%=      5-min Rain = 0
KDO1 121208Z 31004KT M09/M13 A3027 RMK A01 T10941126  RH  077%=      5-min Rain = 0
KDO1 121209Z 31004KT M10/M13 A3028 RMK A01 T10951126  RH  078%=      5-min Rain = 0
KDO1 121210Z 30003KT M10/M13 A3028 RMK A01 T10951126  RH  078%=      5-min Rain = 0
KDO1 121211Z 29002KT M10/M13 A3028 RMK A01 T10951125  RH  078%=      5-min Rain = 0
KDO1 121212Z 29003KT M09/M12 A3028 RMK A01 T10941124  RH  079%=      5-min Rain = 0
KDO1 121213Z 30003KT M09/M12 A3028 RMK A01 T10931124  RH  078%=      5-min Rain = 0
KDO1 121214Z 31002KT M09/M12 A3028 RMK A01 T10931123  RH  078%=      5-min Rain = 0
KDO1 121215Z 31003KT M09/M12 A3028 RMK A01 T10921123  RH  078%=      5-min Rain = 0
KDO1 121216Z 31003KT M09/M12 A3028 RMK A01 T10911122  RH  078%=      5-min Rain = 0
KDO1 121217Z 31003KT M09/M12 A3028 RMK A01 T10901123  RH  077%=      5-min Rain = 0
KDO1 121218Z 31003KT M09/M12 A3027 RMK A01 T10901123  RH  077%=      5-min Rain = 0
KDO1 121219Z 31003KT M09/M12 A3027 RMK A01 T10901123  RH  077%=      5-min Rain = 0
KDO1 121220Z 31002KT M09/M12 A3027 RMK A01 T10901123  RH  077%=      5-min Rain = 0
KDO1 121221Z 32003KT M09/M12 A3027 RMK A01 T10891122  RH  077%=      5-min Rain = 0
KDO1 121222Z 33003KT M09/M12 A3027 RMK A01 T10881122  RH  076%=      5-min Rain = 0
KDO1 121223Z 33004KT M09/M12 A3027 RMK A01 T10871122  RH  076%=      5-min Rain = 0
KDO1 121224Z 34003KT M09/M12 A3027 RMK A01 T10861122  RH  075%=      5-min Rain = 0
KDO1 121225Z 34003KT M09/M12 A3027 RMK A01 T10861122  RH  075%=      5-min Rain = 0
KDO1 121226Z 36002KT M09/M12 A3027 RMK A01 T10851123  RH  075%=      5-min Rain = 0
KDO1 121227Z 00001KT M09/M12 A3027 RMK A01 T10851122  RH  074%=      5-min Rain = 0
KDO1 121228Z 35000KT M09/M12 A3027 RMK A01 T10851124  RH  074%=      5-min Rain = 0
KDO1 121229Z 02000KT M09/M13 A3027 RMK A01 T10891129  RH  073%=      5-min Rain = 0
KDO1 121230Z 00000KT M09/M13 A3027 RMK A01 T10931131  RH  074%=      5-min Rain = 0
KDO1 121231Z 00001KT M09/M13 A3028 RMK A01 T10941129  RH  076%=      5-min Rain = 0
KDO1 121232Z 00001KT M10/M13 A3028 RMK A01 T10951129  RH  077%=      5-min Rain = 0
KDO1 121233Z 35001KT M10/M13 A3027 RMK A01 T10961129  RH  077%=      5-min Rain = 0
KDO1 121234Z 34002KT M10/M13 A3027 RMK A01 T10971129  RH  078%=      5-min Rain = 0
KDO1 121235Z 33002KT M10/M13 A3027 RMK A01 T10971128  RH  079%=      5-min Rain = 0
KDO1 121236Z 34002KT M10/M13 A3028 RMK A01 T10971127  RH  079%=      5-min Rain = 0
KDO1 121237Z 35002KT M10/M13 A3028 RMK A01 T10971127  RH  079%=      5-min Rain = 0
KDO1 121238Z 35001KT M10/M13 A3028 RMK A01 T10971127  RH  079%=      5-min Rain = 0
KDO1 121239Z 34001KT M10/M13 A3028 RMK A01 T10971127  RH  078%=      5-min Rain = 0
KDO1 121240Z 35001KT M10/M13 A3028 RMK A01 T10971128  RH  078%=      5-min Rain = 0
KDO1 121241Z 35002KT M10/M13 A3028 RMK A01 T10981128  RH  078%=      5-min Rain = 0
KDO1 121242Z 35002KT M10/M13 A3028 RMK A01 T10981129  RH  078%=      5-min Rain = 0
KDO1 121243Z 35002KT M10/M13 A3028 RMK A01 T10991130  RH  079%=      5-min Rain = 0
KDO1 121244Z 34002KT M10/M13 A3028 RMK A01 T11001130  RH  079%=      5-min Rain = 0
KDO1 121245Z 34001KT M10/M13 A3028 RMK A01 T11011131  RH  079%=      5-min Rain = 0
KDO1 121246Z 33001KT M10/M13 A3029 RMK A01 T11011131  RH  079%=      5-min Rain = 0
KDO1 121247Z 33001KT M10/M13 A3029 RMK A01 T11021130  RH  080%=      5-min Rain = 0
KDO1 121248Z 33001KT M10/M13 A3029 RMK A01 T11011129  RH  080%=      5-min Rain = 0
KDO1 121249Z 33000KT M10/M13 A3029 RMK A01 T11011128  RH  080%=      5-min Rain = 0
KDO1 121250Z 00001KT M10/M13 A3029 RMK A01 T11011128  RH  081%=      5-min Rain = 0
KDO1 121251Z 01001KT M10/M13 A3029 RMK A01 T11001127  RH  081%=      5-min Rain = 0
KDO1 121252Z 01000KT M10/M13 A3029 RMK A01 T11001127  RH  081%=      5-min Rain = 0
KDO1 121253Z 36000KT M10/M13 A3029 RMK A01 T10991126  RH  081%=      5-min Rain = 0
KDO1 121254Z 35001KT M10/M13 A3029 RMK A01 T10991126  RH  080%=      5-min Rain = 0
KDO1 121255Z 35001KT M10/M13 A3029 RMK A01 T10981126  RH  080%=      5-min Rain = 0
KDO1 121256Z 00001KT M10/M13 A3029 RMK A01 T10981126  RH  080%=      5-min Rain = 0
KDO1 121257Z 00002KT M10/M13 A3029 RMK A01 T10981127  RH  080%=      5-min Rain = 0
KDO1 121258Z 00002KT M10/M13 A3028 RMK A01 T10971125  RH  080%=      5-min Rain = 0
KDO1 121259Z 01003KT M10/M13 A3028 RMK A01 T10961125  RH  080%=      5-min Rain = 0
KDO1 121300Z 01003KT M10/M13 A3028 RMK A01 T10961125  RH  079%=      5-min Rain = 0
KDO1 121301Z 00002KT M10/M12 A3028 RMK A01 T10951124  RH  079%=      5-min Rain = 0
KDO1 121302Z 00002KT M10/M13 A3028 RMK A01 T10951125  RH  078%=      5-min Rain = 0
KDO1 121303Z 36002KT M10/M13 A3028 RMK A01 T10961127  RH  078%=      5-min Rain = 0
KDO1 121304Z 35001KT M10/M13 A3029 RMK A01 T10971128  RH  078%=      5-min Rain = 0
KDO1 121305Z 36002KT M10/M13 A3029 RMK A01 T10971129  RH  078%=      5-min Rain = 0
KDO1 121306Z 00002KT M10/M13 A3029 RMK A01 T10981129  RH  078%=      5-min Rain = 0
KDO1 121307Z 01002KT M10/M13 A3029 RMK A01 T10981128  RH  079%=      5-min Rain = 0
KDO1 121308Z 01003KT M10/M13 A3029 RMK A01 T10971127  RH  079%=      5-min Rain = 0
KDO1 121309Z 01003KT M10/M13 A3029 RMK A01 T10961126  RH  079%=      5-min Rain = 0
KDO1 121310Z 01002KT M10/M13 A3029 RMK A01 T10961126  RH  079%=      5-min Rain = 0
KDO1 121311Z 01002KT M10/M13 A3029 RMK A01 T10961127  RH  078%=      5-min Rain = 0
KDO1 121312Z 01003KT M10/M13 A3029 RMK A01 T10961128  RH  078%=      5-min Rain = 0
KDO1 121313Z 01003KT M10/M13 A3029 RMK A01 T10971128  RH  078%=      5-min Rain = 0
KDO1 121314Z 03002KT M10/M13 A3029 RMK A01 T10971128  RH  078%=      5-min Rain = 0
KDO1 121315Z 04002KT M10/M13 A3029 RMK A01 T10971128  RH  078%=      5-min Rain = 0
KDO1 121316Z 03002KT M10/M13 A3029 RMK A01 T10971128  RH  078%=      5-min Rain = 0
KDO1 121317Z 01001KT M10/M13 A303 RMK A01 T10981128  RH  078%=      5-min Rain = 0
KDO1 121318Z 35001KT M10/M13 A303 RMK A01 T10991130  RH  078%=      5-min Rain = 0
KDO1 121319Z 33001KT M10/M13 A303 RMK A01 T11001131  RH  078%=      5-min Rain = 0
KDO1 121320Z 35001KT M10/M13 A303 RMK A01 T11001131  RH  078%=      5-min Rain = 0
KDO1 121321Z 00001KT M10/M13 A303 RMK A01 T11011130  RH  079%=      5-min Rain = 0
KDO1 121322Z 00002KT M10/M13 A303 RMK A01 T11011130  RH  079%=      5-min Rain = 0
KDO1 121323Z 35002KT M10/M13 A303 RMK A01 T11011130  RH  079%=      5-min Rain = 0
KDO1 121324Z 35002KT M10/M13 A303 RMK A01 T11011130  RH  079%=      5-min Rain = 0
KDO1 121325Z 36002KT M10/M13 A303 RMK A01 T11021132  RH  079%=      5-min Rain = 0
KDO1 121326Z 01002KT M10/M13 A303 RMK A01 T11031132  RH  079%=      5-min Rain = 0
KDO1 121327Z 01002KT M10/M13 A303 RMK A01 T11031131  RH  080%=      5-min Rain = 0
KDO1 121328Z 01002KT M10/M13 A303 RMK A01 T11021129  RH  081%=      5-min Rain = 0
KDO1 121329Z 36002KT M10/M13 A303 RMK A01 T11011128  RH  081%=      5-min Rain = 0
KDO1 121330Z 35002KT M10/M13 A303 RMK A01 T11011129  RH  080%=      5-min Rain = 0
KDO1 121331Z 35001KT M10/M13 A303 RMK A01 T11011129  RH  080%=      5-min Rain = 0
KDO1 121332Z 35001KT M10/M13 A303 RMK A01 T11011129  RH  080%=      5-min Rain = 0
KDO1 121333Z 35001KT M10/M13 A303 RMK A01 T11011128  RH  080%=      5-min Rain = 0
KDO1 121334Z 00001KT M10/M13 A303 RMK A01 T11001127  RH  081%=      5-min Rain = 0
KDO1 121335Z 00002KT M10/M13 A303 RMK A01 T10981125  RH  081%=      5-min Rain = 0
KDO1 121336Z 01002KT M10/M13 A303 RMK A01 T10981125  RH  080%=      5-min Rain = 0
KDO1 121337Z 00002KT M10/M13 A303 RMK A01 T10971125  RH  080%=      5-min Rain = 0
KDO1 121338Z 00002KT M10/M13 A303 RMK A01 T10961125  RH  079%=      5-min Rain = 0
KDO1 121339Z 00001KT M10/M13 A303 RMK A01 T10961126  RH  079%=      5-min Rain = 0
KDO1 121340Z 00001KT M10/M13 A303 RMK A01 T10961126  RH  079%=      5-min Rain = 0
KDO1 121341Z 00001KT M10/M13 A303 RMK A01 T10961126  RH  079%=      5-min Rain = 0
KDO1 121342Z 00002KT M10/M13 A303 RMK A01 T10951125  RH  079%=      5-min Rain = 0
KDO1 121343Z 00001KT M10/M13 A303 RMK A01 T10951125  RH  079%=      5-min Rain = 0
KDO1 121344Z 36001KT M10/M13 A303 RMK A01 T10951125  RH  079%=      5-min Rain = 0
KDO1 121345Z 35001KT M10/M13 A303 RMK A01 T10951125  RH  078%=      5-min Rain = 0
KDO1 121346Z 34001KT M09/M13 A3031 RMK A01 T10941125  RH  078%=      5-min Rain = 0
KDO1 121347Z 33002KT M10/M13 A3031 RMK A01 T10951126  RH  078%=      5-min Rain = 0
KDO1 121348Z 32002KT M10/M13 A3031 RMK A01 T10951126  RH  078%=      5-min Rain = 0
KDO1 121349Z 32003KT M10/M13 A3031 RMK A01 T10951127  RH  078%=      5-min Rain = 0
KDO1 121350Z 32003KT M10/M13 A3031 RMK A01 T10961128  RH  078%=      5-min Rain = 0
KDO1 121351Z 32003KT M10/M13 A3031 RMK A01 T10981131  RH  077%=      5-min Rain = 0
KDO1 121352Z 32004KT M10/M13 A3031 RMK A01 T11001132  RH  077%=      5-min Rain = 0
KDO1 121353Z 31004KT M10/M13 A3031 RMK A01 T11001132  RH  078%=      5-min Rain = 0
KDO1 121354Z 31003KT M10/M13 A3031 RMK A01 T11001131  RH  078%=      5-min Rain = 0
KDO1 121355Z 32003KT M10/M13 A3031 RMK A01 T10991129  RH  079%=      5-min Rain = 0
KDO1 121356Z 32002KT M10/M13 A3031 RMK A01 T10971127  RH  079%=      5-min Rain = 0
KDO1 121357Z 31002KT M10/M13 A3031 RMK A01 T10971127  RH  079%=      5-min Rain = 0
KDO1 121358Z 31002KT M10/M13 A3031 RMK A01 T10961126  RH  079%=      5-min Rain = 0
KDO1 121359Z 31002KT M10/M13 A3031 RMK A01 T10951126  RH  078%=      5-min Rain = 0
KDO1 121400Z 31002KT M10/M13 A3031 RMK A01 T10951126  RH  078%=      5-min Rain = 0
KDO1 121401Z 31002KT M09/M13 A3031 RMK A01 T10941125  RH  078%=      5-min Rain = 0
KDO1 121402Z 31002KT M09/M13 A3031 RMK A01 T10931126  RH  077%=      5-min Rain = 0
KDO1 121403Z 30001KT M09/M13 A3031 RMK A01 T10931126  RH  077%=      5-min Rain = 0
KDO1 121404Z 31001KT M09/M12 A3031 RMK A01 T10921124  RH  077%=      5-min Rain = 0
KDO1 121405Z 30001KT M09/M12 A3031 RMK A01 T10901123  RH  077%=      5-min Rain = 0
KDO1 121406Z 29001KT M09/M12 A3031 RMK A01 T10891122  RH  077%=      5-min Rain = 0
KDO1 121407Z 28001KT M09/M12 A3031 RMK A01 T10881122  RH  076%=      5-min Rain = 0
KDO1 121408Z 27001KT M09/M12 A3031 RMK A01 T10881123  RH  076%=      5-min Rain = 0
KDO1 121409Z 26001KT M09/M12 A3031 RMK A01 T10871123  RH  075%=      5-min Rain = 0
KDO1 121410Z 25001KT M09/M12 A3031 RMK A01 T10881124  RH  075%=      5-min Rain = 0
KDO1 121411Z 24001KT M09/M13 A3031 RMK A01 T10881125  RH  074%=      5-min Rain = 0
KDO1 121412Z 24001KT M09/M13 A3031 RMK A01 T10901128  RH  074%=      5-min Rain = 0
KDO1 121413Z 25001KT M09/M13 A3031 RMK A01 T10931131  RH  074%=      5-min Rain = 0
KDO1 121414Z 26001KT M10/M13 A3031 RMK A01 T10961134  RH  074%=      5-min Rain = 0
KDO1 121415Z 27001KT M10/M13 A3031 RMK A01 T10971134  RH  074%=      5-min Rain = 0
KDO1 121416Z 28002KT M10/M13 A3031 RMK A01 T10991134  RH  075%=      5-min Rain = 0
KDO1 121417Z 28002KT M10/M13 A3031 RMK A01 T10991133  RH  076%=      5-min Rain = 0
KDO1 121418Z 28002KT M10/M13 A3031 RMK A01 T10991132  RH  077%=      5-min Rain = 0
KDO1 121419Z 29001KT M10/M13 A3031 RMK A01 T10981130  RH  078%=      5-min Rain = 0
KDO1 121420Z 29002KT M10/M13 A3031 RMK A01 T10971129  RH  078%=      5-min Rain = 0
KDO1 121421Z 30002KT M10/M13 A3031 RMK A01 T10961127  RH  078%=      5-min Rain = 0
KDO1 121422Z 30003KT M09/M13 A3031 RMK A01 T10941125  RH  078%=      5-min Rain = 0
KDO1 121423Z 29003KT M09/M12 A3031 RMK A01 T10921123  RH  078%=      5-min Rain = 0
KDO1 121424Z 29003KT M09/M12 A3032 RMK A01 T10901122  RH  077%=      5-min Rain = 0
KDO1 121425Z 29003KT M09/M12 A3032 RMK A01 T10881122  RH  076%=      5-min Rain = 0
KDO1 121426Z 29003KT M09/M12 A3032 RMK A01 T10871122  RH  076%=      5-min Rain = 0
KDO1 121427Z 29003KT M09/M12 A3032 RMK A01 T10861122  RH  075%=      5-min Rain = 0
KDO1 121428Z 30002KT M09/M12 A3032 RMK A01 T10851122  RH  074%=      5-min Rain = 0
KDO1 121429Z 30002KT M08/M12 A3032 RMK A01 T10841122  RH  074%=      5-min Rain = 0
KDO1 121430Z 29002KT M08/M12 A3032 RMK A01 T10831122  RH  074%=      5-min Rain = 0
KDO1 121431Z 29002KT M08/M12 A3032 RMK A01 T10821122  RH  073%=      5-min Rain = 0
KDO1 121432Z 29002KT M08/M12 A3032 RMK A01 T10821121  RH  073%=      5-min Rain = 0
KDO1 121433Z 30001KT M08/M12 A3032 RMK A01 T10811121  RH  073%=      5-min Rain = 0
KDO1 121434Z 30001KT M08/M12 A3032 RMK A01 T10801121  RH  073%=      5-min Rain = 0
KDO1 121435Z 31000KT M08/M12 A3032 RMK A01 T10801121  RH  072%=      5-min Rain = 0
KDO1 121436Z 31000KT M08/M12 A3032 RMK A01 T10781120  RH  072%=      5-min Rain = 0
KDO1 121437Z 31000KT M08/M12 A3032 RMK A01 T10771119  RH  072%=      5-min Rain = 0
KDO1 121438Z 00000KT M08/M12 A3032 RMK A01 T10761119  RH  071%=      5-min Rain = 0
KDO1 121439Z 00000KT M08/M12 A3032 RMK A01 T10751118  RH  071%=      5-min Rain = 0
KDO1 121440Z 30000KT M07/M12 A3032 RMK A01 T10741118  RH  071%=      5-min Rain = 0
KDO1 121441Z 29001KT M07/M12 A3032 RMK A01 T10731118  RH  070%=      5-min Rain = 0
KDO1 121442Z 30001KT M07/M12 A3032 RMK A01 T10731119  RH  070%=      5-min Rain = 0
KDO1 121443Z 31001KT M07/M12 A3032 RMK A01 T10721119  RH  069%=      5-min Rain = 0
KDO1 121444Z 29000KT M07/M12 A3032 RMK A01 T10721120  RH  069%=      5-min Rain = 0
KDO1 121445Z 29001KT M07/M12 A3032 RMK A01 T10711119  RH  069%=      5-min Rain = 0
KDO1 121446Z 29001KT M07/M12 A3032 RMK A01 T10711119  RH  069%=      5-min Rain = 0
KDO1 121447Z 29001KT M07/M12 A3032 RMK A01 T10711118  RH  069%=      5-min Rain = 0
KDO1 121448Z 29002KT M07/M12 A3032 RMK A01 T10711119  RH  069%=      5-min Rain = 0
KDO1 121449Z 32002KT M07/M12 A3032 RMK A01 T10711120  RH  068%=      5-min Rain = 0
KDO1 121450Z 33002KT M07/M12 A3032 RMK A01 T10691120  RH  067%=      5-min Rain = 0
KDO1 121451Z 32002KT M07/M12 A3032 RMK A01 T10691120  RH  067%=      5-min Rain = 0
KDO1 121452Z 32002KT M07/M12 A3032 RMK A01 T10681121  RH  066%=      5-min Rain = 0
KDO1 121453Z 35003KT M07/M12 A3032 RMK A01 T10671120  RH  066%=      5-min Rain = 0
KDO1 121454Z 05001KT M07/M12 A3032 RMK A01 T10661121  RH  065%=      5-min Rain = 0
KDO1 121455Z 04001KT M07/M12 A3032 RMK A01 T10651118  RH  066%=      5-min Rain = 0
KDO1 121456Z 00000KT M07/M12 A3032 RMK A01 T10651118  RH  066%=      5-min Rain = 0
KDO1 121457Z 08000KT M06/M12 A3032 RMK A01 T10641116  RH  066%=      5-min Rain = 0
KDO1 121458Z 07000KT M06/M12 A3032 RMK A01 T10621117  RH  065%=      5-min Rain = 0
KDO1 121459Z 09002KT M06/M12 A3032 RMK A01 T10611118  RH  064%=      5-min Rain = 0
KDO1 121500Z 10001KT M06/M12 A3032 RMK A01 T10601116  RH  065%=      5-min Rain = 0
KDO1 121501Z 08002KT M06/M12 A3032 RMK A01 T10601115  RH  065%=      5-min Rain = 0
KDO1 121502Z 08002KT M06/M12 A3032 RMK A01 T10601116  RH  065%=      5-min Rain = 0
KDO1 121503Z 05002KT M06/M12 A3032 RMK A01 T10601117  RH  064%=      5-min Rain = 0
KDO1 121504Z 02003KT M06/M12 A3032 RMK A01 T10601120  RH  063%=      5-min Rain = 0
KDO1 121505Z 03001KT M06/M13 A3032 RMK A01 T10621125  RH  061%=      5-min Rain = 0
KDO1 121506Z 06002KT M06/M13 A3032 RMK A01 T10631126  RH  061%=      5-min Rain = 0
KDO1 121507Z 04002KT M06/M13 A3032 RMK A01 T10631126  RH  061%=      5-min Rain = 0
KDO1 121508Z 03003KT M06/M13 A3032 RMK A01 T10631127  RH  060%=      5-min Rain = 0
KDO1 121509Z 03002KT M06/M13 A3032 RMK A01 T10641131  RH  059%=      5-min Rain = 0
KDO1 121510Z 05002KT M06/M13 A3032 RMK A01 T10641131  RH  059%=      5-min Rain = 0
KDO1 121511Z 03003KT M06/M13 A3032 RMK A01 T10641129  RH  060%=      5-min Rain = 0
KDO1 121512Z 03002KT M06/M13 A3032 RMK A01 T10641131  RH  059%=      5-min Rain = 0
KDO1 121513Z 02002KT M06/M13 A3032 RMK A01 T10641132  RH  059%=      5-min Rain = 0
KDO1 121514Z 35001KT M06/M13 A3032 RMK A01 T10641133  RH  058%=      5-min Rain = 0
KDO1 121515Z 35002KT M06/M13 A3032 RMK A01 T10641132  RH  059%=      5-min Rain = 0
KDO1 121516Z 01004KT M06/M13 A3032 RMK A01 T10641132  RH  059%=      5-min Rain = 0
KDO1 121517Z 01003KT M06/M13 A3032 RMK A01 T10641134  RH  058%=      5-min Rain = 0
KDO1 121518Z 03003KT M07/M14 A3032 RMK A01 T10651135  RH  058%=      5-min Rain = 0
KDO1 121519Z 02002KT M07/M14 A3032 RMK A01 T10651136  RH  057%=      5-min Rain = 0
KDO1 121520Z 03002KT M07/M14 A3032 RMK A01 T10661135  RH  058%=      5-min Rain = 0
KDO1 121521Z 03002KT M07/M13 A3032 RMK A01 T10651134  RH  058%=      5-min Rain = 0
KDO1 121522Z 04001KT M07/M13 A3032 RMK A01 T10651134  RH  058%=      5-min Rain = 0
KDO1 121523Z 07000KT M07/M14 A3032 RMK A01 T10651135  RH  058%=      5-min Rain = 0
KDO1 121524Z 00000KT M06/M13 A3032 RMK A01 T10641134  RH  058%=      5-min Rain = 0
KDO1 121525Z 00000KT M06/M13 A3032 RMK A01 T10621133  RH  057%=      5-min Rain = 0
KDO1 121526Z 02002KT M06/M13 A3032 RMK A01 T10611132  RH  057%=      5-min Rain = 0
KDO1 121527Z 02001KT M06/M13 A3032 RMK A01 T10601134  RH  056%=      5-min Rain = 0
KDO1 121528Z 03003KT M06/M13 A3032 RMK A01 T10601134  RH  056%=      5-min Rain = 0
KDO1 121529Z 02002KT M06/M13 A3032 RMK A01 T10601134  RH  056%=      5-min Rain = 0
KDO1 121530Z 00002KT M06/M13 A3032 RMK A01 T10601133  RH  056%=      5-min Rain = 0
KDO1 121531Z 01002KT M06/M13 A3032 RMK A01 T10601134  RH  056%=      5-min Rain = 0
KDO1 121532Z 06001KT M06/M13 A3032 RMK A01 T10611134  RH  056%=      5-min Rain = 0
KDO1 121533Z 00000KT M06/M13 A3032 RMK A01 T10601133  RH  056%=      5-min Rain = 0
KDO1 121534Z 00000KT M06/M13 A3032 RMK A01 T10591134  RH  056%=      5-min Rain = 0
KDO1 121535Z 05000KT M06/M13 A3032 RMK A01 T10581133  RH  056%=      5-min Rain = 0
KDO1 121536Z 34001KT M06/M13 A3032 RMK A01 T10561132  RH  055%=      5-min Rain = 0
KDO1 121537Z 02002KT M06/M13 A3032 RMK A01 T10561133  RH  054%=      5-min Rain = 0
KDO1 121538Z 03002KT M06/M13 A3032 RMK A01 T10561134  RH  054%=      5-min Rain = 0
KDO1 121539Z 02002KT M06/M14 A3032 RMK A01 T10571135  RH  055%=      5-min Rain = 0
KDO1 121540Z 04002KT M06/M13 A3032 RMK A01 T10581133  RH  055%=      5-min Rain = 0
KDO1 121541Z 02002KT M06/M13 A3032 RMK A01 T10581134  RH  055%=      5-min Rain = 0
KDO1 121542Z 02001KT M06/M13 A3032 RMK A01 T10571133  RH  055%=      5-min Rain = 0
KDO1 121543Z 00001KT M06/M13 A3032 RMK A01 T10561132  RH  055%=      5-min Rain = 0
KDO1 121544Z 35001KT M06/M13 A3032 RMK A01 T10551131  RH  055%=      5-min Rain = 0
KDO1 121545Z 04000KT M06/M13 A3032 RMK A01 T10551132  RH  055%=      5-min Rain = 0
KDO1 121546Z 02000KT M06/M13 A3032 RMK A01 T10551131  RH  055%=      5-min Rain = 0
KDO1 121547Z 01000KT M05/M13 A3032 RMK A01 T10541131  RH  055%=      5-min Rain = 0
KDO1 121548Z 00000KT M05/M13 A3032 RMK A01 T10531129  RH  055%=      5-min Rain = 0
KDO1 121549Z 31001KT M05/M13 A3032 RMK A01 T10521129  RH  055%=      5-min Rain = 0
KDO1 121550Z 32000KT M05/M13 A3032 RMK A01 T10531131  RH  054%=      5-min Rain = 0
KDO1 121551Z 00000KT M05/M13 A3032 RMK A01 T10531131  RH  054%=      5-min Rain = 0
KDO1 121552Z 20000KT M05/M13 A3032 RMK A01 T10541131  RH  054%=      5-min Rain = 0
KDO1 121553Z 00000KT M05/M13 A3032 RMK A01 T10541131  RH  055%=      5-min Rain = 0
KDO1 121554Z 23001KT M05/M13 A3032 RMK A01 T10531130  RH  055%=      5-min Rain = 0
KDO1 121555Z 23001KT M05/M13 A3032 RMK A01 T10521130  RH  054%=      5-min Rain = 0
KDO1 121556Z 23000KT M05/M13 A3032 RMK A01 T10521131  RH  054%=      5-min Rain = 0
KDO1 121557Z 19000KT M05/M13 A3032 RMK A01 T10521131  RH  054%=      5-min Rain = 0
KDO1 121558Z 00000KT M05/M13 A3032 RMK A01 T10511129  RH  054%=      5-min Rain = 0
KDO1 121559Z 02002KT M05/M13 A3032 RMK A01 T10491127  RH  054%=      5-min Rain = 0
KDO1 121600Z 08002KT M05/M13 A3032 RMK A01 T10481128  RH  053%=      5-min Rain = 0
KDO1 121601Z 06000KT M05/M13 A3032 RMK A01 T10471129  RH  053%=      5-min Rain = 0
KDO1 121602Z 09000KT M05/M13 A3032 RMK A01 T10471129  RH  053%=      5-min Rain = 0
KDO1 121603Z 02001KT M05/M13 A3032 RMK A01 T10471129  RH  053%=      5-min Rain = 0
KDO1 121604Z 01000KT M05/M13 A3032 RMK A01 T10471130  RH  052%=      5-min Rain = 0
KDO1 121605Z 00000KT M05/M13 A3032 RMK A01 T10481130  RH  053%=      5-min Rain = 0
KDO1 121606Z 04000KT M05/M13 A3032 RMK A01 T10481130  RH  053%=      5-min Rain = 0
KDO1 121607Z 09001KT M05/M13 A3032 RMK A01 T10481130  RH  053%=      5-min Rain = 0
KDO1 121608Z 12003KT M05/M13 A3032 RMK A01 T10471129  RH  052%=      5-min Rain = 0
KDO1 121609Z 11003KT M05/M13 A3032 RMK A01 T10451130  RH  052%=      5-min Rain = 0
KDO1 121610Z 11003KT M04/M13 A3032 RMK A01 T10431129  RH  051%=      5-min Rain = 0
KDO1 121611Z 12002KT M04/M13 A3032 RMK A01 T10431130  RH  051%=      5-min Rain = 0
KDO1 121612Z 11002KT M04/M13 A3032 RMK A01 T10431131  RH  050%=      5-min Rain = 0
KDO1 121613Z 12002KT M04/M13 A3032 RMK A01 T10431131  RH  050%=      5-min Rain = 0
KDO1 121614Z 13004KT M04/M13 A3032 RMK A01 T10431131  RH  050%=      5-min Rain = 0
KDO1 121615Z 12001KT M04/M13 A3032 RMK A01 T10431131  RH  050%=      5-min Rain = 0
KDO1 121616Z 11002KT M04/M13 A3032 RMK A01 T10421130  RH  050%=      5-min Rain = 0
KDO1 121617Z 11003KT M04/M13 A3032 RMK A01 T10411129  RH  050%=      5-min Rain = 0
KDO1 121618Z 11003KT M04/M13 A3032 RMK A01 T10411130  RH  050%=      5-min Rain = 0
KDO1 121619Z 13003KT M04/M13 A3032 RMK A01 T10401130  RH  050%=      5-min Rain = 0
KDO1 121620Z 11003KT M04/M13 A3032 RMK A01 T10391131  RH  049%=      5-min Rain = 0
KDO1 121621Z 10003KT M04/M13 A3032 RMK A01 T10391130  RH  049%=      5-min Rain = 0
KDO1 121622Z 10003KT M04/M13 A3032 RMK A01 T10361130  RH  048%=      5-min Rain = 0
KDO1 121623Z 08002KT M04/M13 A3032 RMK A01 T10361132  RH  048%=      5-min Rain = 0
KDO1 121624Z 05002KT M04/M13 A3032 RMK A01 T10361132  RH  047%=      5-min Rain = 0
KDO1 121625Z 04001KT M04/M13 A3032 RMK A01 T10381133  RH  048%=      5-min Rain = 0
KDO1 121626Z 08000KT M04/M13 A3032 RMK A01 T10381131  RH  048%=      5-min Rain = 0
KDO1 121627Z 00000KT M04/M13 A3032 RMK A01 T10381131  RH  049%=      5-min Rain = 0
KDO1 121628Z 13001KT M04/M13 A3032 RMK A01 T10371129  RH  049%=      5-min Rain = 0
KDO1 121629Z 12002KT M04/M13 A3032 RMK A01 T10351127  RH  049%=      5-min Rain = 0
KDO1 121630Z 11002KT M03/M13 A3032 RMK A01 T10341127  RH  048%=      5-min Rain = 0
KDO1 121631Z 08002KT M03/M13 A3032 RMK A01 T10321125  RH  049%=      5-min Rain = 0
KDO1 121632Z 08002KT M03/M13 A3032 RMK A01 T10311127  RH  047%=      5-min Rain = 0
KDO1 121633Z 09002KT M03/M13 A3032 RMK A01 T10311126  RH  048%=      5-min Rain = 0
KDO1 121634Z 12003KT M03/M13 A3032 RMK A01 T10311125  RH  048%=      5-min Rain = 0
KDO1 121635Z 16003KT M03/M13 A3032 RMK A01 T10301126  RH  048%=      5-min Rain = 0
KDO1 121636Z 17003KT M03/M13 A3032 RMK A01 T10291126  RH  047%=      5-min Rain = 0
KDO1 121637Z 20003KT M03/M13 A3032 RMK A01 T10291127  RH  047%=      5-min Rain = 0
KDO1 121638Z 21001KT M03/M13 A3032 RMK A01 T10291128  RH  047%=      5-min Rain = 0
KDO1 121639Z 25001KT M03/M13 A3032 RMK A01 T10321130  RH  046%=      5-min Rain = 0
KDO1 121640Z 24001KT M03/M13 A3032 RMK A01 T10331130  RH  047%=      5-min Rain = 0
KDO1 121641Z 27000KT M03/M13 A3032 RMK A01 T10341130  RH  047%=      5-min Rain = 0
KDO1 121642Z 26000KT M03/M13 A3032 RMK A01 T10331128  RH  048%=      5-min Rain = 0
KDO1 121643Z 10003KT M03/M13 A3032 RMK A01 T10311125  RH  048%=      5-min Rain = 0
KDO1 121644Z 10004KT M03/M13 A3032 RMK A01 T10281126  RH  047%=      5-min Rain = 0
KDO1 121645Z 10003KT M03/M13 A3032 RMK A01 T10291128  RH  047%=      5-min Rain = 0
KDO1 121646Z 11003KT M03/M13 A3032 RMK A01 T10301128  RH  047%=      5-min Rain = 0
KDO1 121647Z 12001KT M03/M13 A3032 RMK A01 T10301128  RH  047%=      5-min Rain = 0
KDO1 121648Z 00000KT M03/M13 A3032 RMK A01 T10291128  RH  046%=      5-min Rain = 0
KDO1 121649Z 35000KT M03/M13 A3032 RMK A01 T10291128  RH  046%=      5-min Rain = 0
KDO1 121650Z 02000KT M03/M13 A3032 RMK A01 T10301129  RH  046%=      5-min Rain = 0
KDO1 121651Z 13001KT M03/M13 A3032 RMK A01 T10301129  RH  047%=      5-min Rain = 0
KDO1 121652Z 11000KT M03/M13 A3032 RMK A01 T10301128  RH  047%=      5-min Rain = 0
KDO1 121653Z 11002KT M03/M13 A3032 RMK A01 T10281127  RH  047%=      5-min Rain = 0
KDO1 121654Z 11001KT M03/M13 A3032 RMK A01 T10261125  RH  046%=      5-min Rain = 0
KDO1 121655Z 11002KT M02/M12 A3031 RMK A01 T10231124  RH  046%=      5-min Rain = 0
KDO1 121656Z 12003KT M02/M13 A3031 RMK A01 T10221127  RH  045%=      5-min Rain = 0
KDO1 121657Z 14002KT M02/M13 A3031 RMK A01 T10221127  RH  045%=      5-min Rain = 0
KDO1 121658Z 09001KT M02/M13 A3031 RMK A01 T10221128  RH  044%=      5-min Rain = 0
KDO1 121659Z 16002KT M02/M13 A3031 RMK A01 T10221129  RH  044%=      5-min Rain = 0
KDO1 121700Z 18004KT M02/M13 A3031 RMK A01 T10221127  RH  044%=      5-min Rain = 0
KDO1 121701Z 18001KT M02/M13 A3031 RMK A01 T10211128  RH  044%=      5-min Rain = 0
KDO1 121702Z 14002KT M02/M13 A3031 RMK A01 T10211128  RH  044%=      5-min Rain = 0
KDO1 121703Z 14003KT M02/M13 A3031 RMK A01 T10201127  RH  044%=      5-min Rain = 0
KDO1 121704Z 13003KT M02/M13 A3031 RMK A01 T10181126  RH  044%=      5-min Rain = 0
KDO1 121705Z 13004KT M02/M13 A3031 RMK A01 T10171127  RH  043%=      5-min Rain = 0
KDO1 121706Z 13005KT M02/M13 A3031 RMK A01 T10161130  RH  042%=      5-min Rain = 0
KDO1 121707Z 11004KT M02/M13 A3031 RMK A01 T10161130  RH  042%=      5-min Rain = 0
KDO1 121708Z 12002KT M02/M13 A3031 RMK A01 T10161129  RH  042%=      5-min Rain = 0
KDO1 121709Z 12002KT M02/M13 A3031 RMK A01 T10161129  RH  042%=      5-min Rain = 0
KDO1 121710Z 18004KT M02/M13 A303 RMK A01 T10151128  RH  042%=      5-min Rain = 0
KDO1 121711Z 18002KT M02/M13 A303 RMK A01 T10151126  RH  042%=      5-min Rain = 0
KDO1 121712Z 14004KT M02/M13 A303 RMK A01 T10151126  RH  043%=      5-min Rain = 0
KDO1 121713Z 13004KT M01/M13 A303 RMK A01 T10131125  RH  042%=      5-min Rain = 0
KDO1 121714Z 13004KT M01/M13 A303 RMK A01 T10121127  RH  041%=      5-min Rain = 0
KDO1 121715Z 14004KT M01/M13 A303 RMK A01 T10121128  RH  041%=      5-min Rain = 0
KDO1 121716Z 15003KT M01/M13 A303 RMK A01 T10131129  RH  041%=      5-min Rain = 0
KDO1 121717Z 15004KT M01/M13 A303 RMK A01 T10121126  RH  042%=      5-min Rain = 0
KDO1 121718Z 17005KT M01/M12 A303 RMK A01 T10081120  RH  042%=      5-min Rain = 0
KDO1 121719Z 18004KT M01/M12 A303 RMK A01 T10071119  RH  042%=      5-min Rain = 0
KDO1 121720Z 20003KT M01/M12 A303 RMK A01 T10091121  RH  042%=      5-min Rain = 0
KDO1 121721Z 19003KT M01/M12 A303 RMK A01 T10111122  RH  043%=      5-min Rain = 0
KDO1 121722Z 17004KT M01/M12 A303 RMK A01 T10111122  RH  043%=      5-min Rain = 0
KDO1 121723Z 17004KT M01/M12 A3029 RMK A01 T10111123  RH  042%=      5-min Rain = 0
KDO1 121724Z 17005KT M01/M12 A3029 RMK A01 T10111123  RH  042%=      5-min Rain = 0
KDO1 121725Z 18003KT M01/M12 A3029 RMK A01 T10121124  RH  042%=      5-min Rain = 0
KDO1 121726Z 17002KT M01/M13 A3029 RMK A01 T10131125  RH  042%=      5-min Rain = 0
KDO1 121727Z 17002KT M01/M13 A3029 RMK A01 T10141125  RH  043%=      5-min Rain = 0
KDO1 121728Z 16003KT M01/M12 A3029 RMK A01 T10131124  RH  043%=      5-min Rain = 0
KDO1 121729Z 19005KT M01/M12 A3029 RMK A01 T10111121  RH  043%=      5-min Rain = 0
KDO1 121730Z 14005KT M01/M12 A3029 RMK A01 T10091119  RH  043%=      5-min Rain = 0
KDO1 121731Z 15004KT M01/M12 A3029 RMK A01 T10081120  RH  042%=      5-min Rain = 0
KDO1 121732Z 15006KT M01/M12 A3029 RMK A01 T10061119  RH  042%=      5-min Rain = 0
KDO1 121733Z 15005KT M01/M12 A3029 RMK A01 T10051121  RH  041%=      5-min Rain = 0
KDO1 121734Z 16002KT M01/M12 A3029 RMK A01 T10071122  RH  041%=      5-min Rain = 0
KDO1 121735Z 12002KT M01/M12 A3029 RMK A01 T10071121  RH  042%=      5-min Rain = 0
KDO1 121736Z 15002KT M01/M12 A3029 RMK A01 T10071121  RH  042%=      5-min Rain = 0
KDO1 121737Z 18003KT M01/M12 A3029 RMK A01 T10061120  RH  042%=      5-min Rain = 0
KDO1 121738Z 14003KT M00/M12 A3029 RMK A01 T10021117  RH  042%=      5-min Rain = 0
KDO1 121739Z 16002KT 00/M12 A3029 RMK A01 T00011116  RH  041%=      5-min Rain = 0
KDO1 121740Z 16004KT 00/M12 A3029 RMK A01 T00021117  RH  040%=      5-min Rain = 0
KDO1 121741Z 17007KT 00/12 A3029 RMK A01 T00-00-119  RH  040%=      5-min Rain = 0
KDO1 121742Z 17005KT M00/M12 A3029 RMK A01 T10011118  RH  041%=      5-min Rain = 0
KDO1 121743Z 18003KT M00/M12 A3029 RMK A01 T10021117  RH  042%=      5-min Rain = 0
KDO1 121744Z 22005KT 00/12 A3029 RMK A01 T00-00-115  RH  042%=      5-min Rain = 0
KDO1 121745Z 23002KT 00/12 A3029 RMK A01 T00-00-117  RH  041%=      5-min Rain = 0
KDO1 121746Z 23003KT M00/M12 A3029 RMK A01 T10011117  RH  041%=      5-min Rain = 0
KDO1 121747Z 26002KT M00/M12 A3029 RMK A01 T10031119  RH  041%=      5-min Rain = 0
KDO1 121748Z 27001KT M00/M12 A3029 RMK A01 T10041118  RH  042%=      5-min Rain = 0
KDO1 121749Z 25003KT M00/M12 A3029 RMK A01 T10041117  RH  042%=      5-min Rain = 0
KDO1 121750Z 22004KT M00/M12 A3029 RMK A01 T10031117  RH  042%=      5-min Rain = 0
KDO1 121751Z 18005KT M00/M12 A3029 RMK A01 T10021117  RH  042%=      5-min Rain = 0
KDO1 121752Z 16003KT M00/M12 A3029 RMK A01 T10011118  RH  041%=      5-min Rain = 0
KDO1 121753Z 16003KT 00/12 A3028 RMK A01 T00000-117  RH  041%=      5-min Rain = 0
KDO1 121754Z 18004KT 00/M12 A3028 RMK A01 T00011117  RH  041%=      5-min Rain = 0
KDO1 121755Z 19004KT 00/M12 A3028 RMK A01 T00021117  RH  040%=      5-min Rain = 0
KDO1 121756Z 19003KT 00/12 A3028 RMK A01 T00000-119  RH  040%=      5-min Rain = 0
KDO1 121757Z 17003KT 00/12 A3028 RMK A01 T00-00-118  RH  041%=      5-min Rain = 0
KDO1 121758Z 15006KT 00/M12 A3028 RMK A01 T00021117  RH  041%=      5-min Rain = 0
KDO1 121759Z 15004KT 00/M12 A3028 RMK A01 T00031117  RH  040%=      5-min Rain = 0
KDO1 121800Z 11002KT 00/M12 A3028 RMK A01 T00041118  RH  040%=      5-min Rain = 0
KDO1 121801Z 07002KT 00/M12 A3028 RMK A01 T00021119  RH  040%=      5-min Rain = 0
KDO1 121802Z 08002KT 00/M12 A3028 RMK A01 T00011119  RH  040%=      5-min Rain = 0
KDO1 121803Z 13002KT 00/M12 A3028 RMK A01 T00011118  RH  040%=      5-min Rain = 0
KDO1 121804Z 13003KT 00/M12 A3028 RMK A01 T00011118  RH  040%=      5-min Rain = 0
KDO1 121805Z 12001KT 00/M12 A3027 RMK A01 T00021118  RH  040%=      5-min Rain = 0
KDO1 121806Z 16003KT 00/M12 A3027 RMK A01 T00031118  RH  040%=      5-min Rain = 0
KDO1 121807Z 20003KT 00/M12 A3027 RMK A01 T00041117  RH  040%=      5-min Rain = 0
KDO1 121808Z 18001KT 01/M12 A3027 RMK A01 T00051117  RH  040%=      5-min Rain = 0
KDO1 121809Z 18004KT 01/M12 A3027 RMK A01 T00071115  RH  040%=      5-min Rain = 0
KDO1 121810Z 17003KT 01/M11 A3027 RMK A01 T00101114  RH  039%=      5-min Rain = 0
KDO1 121811Z 15004KT 01/M12 A3027 RMK A01 T00091116  RH  039%=      5-min Rain = 0
KDO1 121812Z 18004KT 01/M12 A3027 RMK A01 T00081116  RH  039%=      5-min Rain = 0
KDO1 121813Z 16003KT 01/M11 A3027 RMK A01 T00101114  RH  039%=      5-min Rain = 0
KDO1 121814Z 15003KT 01/M11 A3027 RMK A01 T00121114  RH  039%=      5-min Rain = 0
KDO1 121815Z 15007KT 02/M11 A3027 RMK A01 T00161112  RH  038%=      5-min Rain = 0
KDO1 121816Z 16006KT 02/M12 A3026 RMK A01 T00151115  RH  037%=      5-min Rain = 0
KDO1 121817Z 14005KT 01/M12 A3026 RMK A01 T00141115  RH  038%=      5-min Rain = 0
KDO1 121818Z 16007KT 02/M11 A3026 RMK A01 T00151114  RH  038%=      5-min Rain = 0
KDO1 121819Z 15006KT 02/M12 A3026 RMK A01 T00151115  RH  037%=      5-min Rain = 0
KDO1 121820Z 15004KT 01/M12 A3026 RMK A01 T00141116  RH  037%=      5-min Rain = 0
KDO1 121821Z 16002KT 01/M12 A3026 RMK A01 T00141115  RH  038%=      5-min Rain = 0
KDO1 121822Z 18003KT 01/M11 A3026 RMK A01 T00141114  RH  038%=      5-min Rain = 0
KDO1 121823Z 17003KT 01/M12 A3026 RMK A01 T00141115  RH  038%=      5-min Rain = 0
KDO1 121824Z 14001KT 01/M12 A3026 RMK A01 T00141115  RH  037%=      5-min Rain = 0
KDO1 121825Z 15004KT 02/M11 A3026 RMK A01 T00151114  RH  038%=      5-min Rain = 0
KDO1 121826Z 15007KT 02/M11 A3026 RMK A01 T00161114  RH  037%=      5-min Rain = 0
KDO1 121827Z 15005KT 02/M11 A3026 RMK A01 T00161114  RH  037%=      5-min Rain = 0
KDO1 121828Z 15005KT 02/M11 A3026 RMK A01 T00171114  RH  037%=      5-min Rain = 0
KDO1 121829Z 14005KT 02/M11 A3025 RMK A01 T00181113  RH  037%=      5-min Rain = 0
KDO1 121830Z 16004KT 02/M11 A3025 RMK A01 T00171114  RH  037%=      5-min Rain = 0
KDO1 121831Z 16003KT 02/M12 A3025 RMK A01 T00161115  RH  037%=      5-min Rain = 0
KDO1 121832Z 16003KT 02/M12 A3025 RMK A01 T00151115  RH  037%=      5-min Rain = 0
KDO1 121833Z 15004G9KT 02/M11 A3025 RMK A01 T00151114  RH  038%=      5-min Rain = 0
KDO1 121834Z 14008KT 02/M11 A3025 RMK A01 T00181111  RH  038%=      5-min Rain = 0
KDO1 121835Z 16007KT 02/M11 A3025 RMK A01 T00201111  RH  037%=      5-min Rain = 0
KDO1 121836Z 17007KT 02/M11 A3025 RMK A01 T00211112  RH  037%=      5-min Rain = 0
KDO1 121837Z 15005KT 02/M11 A3024 RMK A01 T00211112  RH  037%=      5-min Rain = 0
KDO1 121838Z 12004KT 02/M11 A3024 RMK A01 T00201112  RH  037%=      5-min Rain = 0
KDO1 121839Z 11002KT 02/M11 A3024 RMK A01 T00191113  RH  037%=      5-min Rain = 0
KDO1 121840Z 15006KT 02/M11 A3024 RMK A01 T00201111  RH  037%=      5-min Rain = 0
KDO1 121841Z 16008KT 02/M11 A3024 RMK A01 T00231110  RH  037%=      5-min Rain = 0
KDO1 121842Z 16007KT 02/M11 A3024 RMK A01 T00231111  RH  036%=      5-min Rain = 0
KDO1 121843Z 14007KT 02/M11 A3023 RMK A01 T00241111  RH  036%=      5-min Rain = 0
KDO1 121844Z 15005KT 02/M11 A3023 RMK A01 T00241112  RH  036%=      5-min Rain = 0
KDO1 121845Z 14005KT 02/M11 A3023 RMK A01 T00241112  RH  036%=      5-min Rain = 0
KDO1 121846Z 18004KT 03/M11 A3023 RMK A01 T00251112  RH  036%=      5-min Rain = 0
KDO1 121847Z 18003KT 02/M11 A3023 RMK A01 T00241112  RH  036%=      5-min Rain = 0
KDO1 121848Z 17006KT 02/M11 A3023 RMK A01 T00241112  RH  036%=      5-min Rain = 0
KDO1 121849Z 15008KT 03/M11 A3023 RMK A01 T00261111  RH  036%=      5-min Rain = 0
KDO1 121850Z 14007KT 03/M11 A3023 RMK A01 T00271112  RH  035%=      5-min Rain = 0
KDO1 121851Z 13008KT 03/M11 A3023 RMK A01 T00271112  RH  035%=      5-min Rain = 0
KDO1 121852Z 13007KT 03/M11 A3023 RMK A01 T00261114  RH  035%=      5-min Rain = 0
KDO1 121853Z 11008KT 03/M11 A3023 RMK A01 T00251114  RH  035%=      5-min Rain = 0
KDO1 121854Z 11007KT 02/M12 A3023 RMK A01 T00241115  RH  035%=      5-min Rain = 0
KDO1 121855Z 13004KT 02/M12 A3023 RMK A01 T00221116  RH  035%=      5-min Rain = 0
KDO1 121856Z 13004KT 02/M12 A3023 RMK A01 T00221115  RH  036%=      5-min Rain = 0
KDO1 121857Z 13009KT 02/M11 A3022 RMK A01 T00241112  RH  036%=      5-min Rain = 0
KDO1 121858Z 13009KT 03/M11 A3022 RMK A01 T00271112  RH  035%=      5-min Rain = 0
KDO1 121859Z 14006KT 03/M11 A3023 RMK A01 T00271113  RH  035%=      5-min Rain = 0
KDO1 121900Z 14004KT 03/M11 A3023 RMK A01 T00271113  RH  035%=      5-min Rain = 0
KDO1 121901Z 11003KT 03/M11 A3023 RMK A01 T00281112  RH  035%=      5-min Rain = 0
KDO1 121902Z 13005KT 03/M11 A3023 RMK A01 T00281113  RH  035%=      5-min Rain = 0
KDO1 121903Z 11005KT 03/M11 A3023 RMK A01 T00301112  RH  034%=      5-min Rain = 0
KDO1 121904Z 11006KT 03/M11 A3023 RMK A01 T00321112  RH  034%=      5-min Rain = 0
KDO1 121905Z 11003KT 03/M12 A3022 RMK A01 T00291115  RH  034%=      5-min Rain = 0
KDO1 121906Z 08003KT 03/M12 A3022 RMK A01 T00271116  RH  034%=      5-min Rain = 0
KDO1 121907Z 14005KT 02/M12 A3022 RMK A01 T00241116  RH  035%=      5-min Rain = 0
KDO1 121908Z 15006KT 03/M11 A3022 RMK A01 T00261112  RH  035%=      5-min Rain = 0
KDO1 121909Z 13005KT 03/M11 A3022 RMK A01 T00311110  RH  035%=      5-min Rain = 0
KDO1 121910Z 13007KT 03/M11 A3022 RMK A01 T00321112  RH  034%=      5-min Rain = 0
KDO1 121911Z 14008KT 03/M11 A3022 RMK A01 T00311114  RH  034%=      5-min Rain = 0
KDO1 121912Z 13006KT 03/M12 A3022 RMK A01 T00291115  RH  034%=      5-min Rain = 0
KDO1 121913Z 14007KT 03/M11 A3021 RMK A01 T00301113  RH  034%=      5-min Rain = 0
KDO1 121914Z 12006KT 03/M11 A3021 RMK A01 T00321112  RH  034%=      5-min Rain = 0
KDO1 121915Z 11006KT 03/M11 A3021 RMK A01 T00331113  RH  033%=      5-min Rain = 0
KDO1 121916Z 12005G10KT 03/M11 A3021 RMK A01 T00331114  RH  033%=      5-min Rain = 0
KDO1 121917Z 14009KT 03/M11 A3021 RMK A01 T00331113  RH  034%=      5-min Rain = 0
KDO1 121918Z 13009KT 03/M11 A3021 RMK A01 T00331112  RH  034%=      5-min Rain = 0
KDO1 121919Z 15008KT 03/M11 A3021 RMK A01 T00341113  RH  033%=      5-min Rain = 0
KDO1 121920Z 14007KT 03/M12 A3021 RMK A01 T00331115  RH  033%=      5-min Rain = 0
KDO1 121921Z 13004KT 03/M12 A3021 RMK A01 T00311115  RH  033%=      5-min Rain = 0
KDO1 121922Z 13008KT 03/M11 A3021 RMK A01 T00311113  RH  034%=      5-min Rain = 0
KDO1 121923Z 13009KT 03/M11 A3021 RMK A01 T00331113  RH  033%=      5-min Rain = 0
KDO1 121924Z 15007KT 03/M11 A3021 RMK A01 T00341113  RH  033%=      5-min Rain = 0
KDO1 121925Z 15007KT 03/M11 A3021 RMK A01 T00321114  RH  033%=      5-min Rain = 0
KDO1 121926Z 15005KT 03/M11 A3021 RMK A01 T00321114  RH  033%=      5-min Rain = 0
KDO1 121927Z 14006KT 03/M11 A3021 RMK A01 T00331113  RH  033%=      5-min Rain = 0
KDO1 121928Z 13005KT 03/M11 A3021 RMK A01 T00331114  RH  033%=      5-min Rain = 0
KDO1 121929Z 10005KT 04/M11 A3021 RMK A01 T00351110  RH  034%=      5-min Rain = 0
KDO1 121930Z 13006KT 04/M11 A3021 RMK A01 T00381110  RH  033%=      5-min Rain = 0
KDO1 121931Z 13006KT 04/M11 A3021 RMK A01 T00391112  RH  032%=      5-min Rain = 0
KDO1 121932Z 14009KT 04/M11 A3021 RMK A01 T00391111  RH  033%=      5-min Rain = 0
KDO1 121933Z 14008KT 04/M11 A3021 RMK A01 T00391112  RH  032%=      5-min Rain = 0
KDO1 121934Z 15005KT 04/M12 A3021 RMK A01 T00361115  RH  032%=      5-min Rain = 0
KDO1 121935Z 15009KT 03/M11 A3021 RMK A01 T00341114  RH  033%=      5-min Rain = 0
KDO1 121936Z 15008KT 04/M11 A3021 RMK A01 T00351113  RH  033%=      5-min Rain = 0
KDO1 121937Z 14009KT 03/M11 A3021 RMK A01 T00341114  RH  033%=      5-min Rain = 0
KDO1 121938Z 13009KT 03/M11 A3021 RMK A01 T00341113  RH  033%=      5-min Rain = 0
KDO1 121939Z 13007KT 03/M11 A3021 RMK A01 T00341113  RH  033%=      5-min Rain = 0
KDO1 121940Z 12006G11KT 03/M11 A302 RMK A01 T00331114  RH  033%=      5-min Rain = 0
KDO1 121941Z 13009KT 03/M11 A302 RMK A01 T00331113  RH  033%=      5-min Rain = 0
KDO1 121942Z 14007KT 04/M11 A302 RMK A01 T00351113  RH  033%=      5-min Rain = 0
KDO1 121943Z 12005KT 04/M11 A302 RMK A01 T00351114  RH  033%=      5-min Rain = 0
KDO1 121944Z 13008KT 04/M11 A302 RMK A01 T00371110  RH  033%=      5-min Rain = 0
KDO1 121945Z 14010KT 04/M11 A302 RMK A01 T00421109  RH  032%=      5-min Rain = 0
KDO1 121946Z 15007KT 04/M11 A302 RMK A01 T00421112  RH  032%=      5-min Rain = 0
KDO1 121947Z 15005KT 04/M11 A302 RMK A01 T00381114  RH  032%=      5-min Rain = 0
KDO1 121948Z 14011KT 04/M11 A302 RMK A01 T00391111  RH  032%=      5-min Rain = 0
KDO1 121949Z 15009KT 04/M11 A302 RMK A01 T00401112  RH  032%=      5-min Rain = 0
KDO1 121950Z 16006KT 04/M11 A3019 RMK A01 T00401112  RH  032%=      5-min Rain = 0
KDO1 121951Z 15008KT 04/M11 A3019 RMK A01 T00411110  RH  032%=      5-min Rain = 0
KDO1 121952Z 15010KT 04/M11 A3019 RMK A01 T00441110  RH  032%=      5-min Rain = 0
KDO1 121953Z 15008KT 04/M11 A302 RMK A01 T00431112  RH  031%=      5-min Rain = 0
KDO1 121954Z 16007KT 04/M11 A3019 RMK A01 T00421112  RH  032%=      5-min Rain = 0
KDO1 121955Z 14010KT 04/M11 A3019 RMK A01 T00421111  RH  032%=      5-min Rain = 0
KDO1 121956Z 13010KT 04/M11 A3019 RMK A01 T00411113  RH  032%=      5-min Rain = 0
KDO1 121957Z 15008G13KT 04/M11 A3019 RMK A01 T00391113  RH  032%=      5-min Rain = 0
KDO1 121958Z 14008KT 04/M11 A3019 RMK A01 T00381112  RH  032%=      5-min Rain = 0
KDO1 121959Z 14007KT 04/M11 A3019 RMK A01 T00391112  RH  032%=      5-min Rain = 0
KDO1 122000Z 15009KT 04/M11 A3019 RMK A01 T00391112  RH  032%=      5-min Rain = 0
KDO1 122001Z 15006KT 04/M11 A3019 RMK A01 T00401112  RH  032%=      5-min Rain = 0
KDO1 122002Z 16005G11KT 04/M11 A3019 RMK A01 T00411112  RH  032%=      5-min Rain = 0
KDO1 122003Z 15007KT 04/M11 A3019 RMK A01 T00421111  RH  032%=      5-min Rain = 0
KDO1 122004Z 15005KT 04/M11 A3019 RMK A01 T00421111  RH  032%=      5-min Rain = 0
KDO1 122005Z 15009KT 04/M11 A3019 RMK A01 T00441109  RH  032%=      5-min Rain = 0
KDO1 122006Z 16008KT 05/M11 A3019 RMK A01 T00451110  RH  031%=      5-min Rain = 0
KDO1 122007Z 14008KT 04/M11 A3019 RMK A01 T00431112  RH  031%=      5-min Rain = 0
KDO1 122008Z 15006KT 04/M11 A3019 RMK A01 T00431111  RH  032%=      5-min Rain = 0
KDO1 122009Z 15006KT 04/M11 A3019 RMK A01 T00441110  RH  032%=      5-min Rain = 0
KDO1 122010Z 16006G11KT 05/M11 A3019 RMK A01 T00451111  RH  031%=      5-min Rain = 0
KDO1 122011Z 14006KT 04/M11 A3019 RMK A01 T00441112  RH  031%=      5-min Rain = 0
KDO1 122012Z 14009KT 04/M11 A3019 RMK A01 T00441111  RH  031%=      5-min Rain = 0
KDO1 122013Z 14009KT 05/M11 A3019 RMK A01 T00461108  RH  032%=      5-min Rain = 0
KDO1 122014Z 16011KT 05/M11 A3019 RMK A01 T00481109  RH  031%=      5-min Rain = 0
KDO1 122015Z 17009KT 05/M11 A3019 RMK A01 T00481110  RH  031%=      5-min Rain = 0
KDO1 122016Z 16006KT 05/M11 A3019 RMK A01 T00461111  RH  031%=      5-min Rain = 0
KDO1 122017Z 16009KT 05/M11 A3019 RMK A01 T00471109  RH  031%=      5-min Rain = 0
KDO1 122018Z 14008KT 05/M11 A3019 RMK A01 T00471110  RH  031%=      5-min Rain = 0
KDO1 122019Z 16007KT 05/M11 A3019 RMK A01 T00461110  RH  031%=      5-min Rain = 0
KDO1 122020Z 15008G14KT 05/M11 A3019 RMK A01 T00471109  RH  031%=      5-min Rain = 0
KDO1 122021Z 14011KT 05/M11 A3019 RMK A01 T00481109  RH  031%=      5-min Rain = 0
KDO1 122022Z 13010KT 05/M11 A3019 RMK A01 T00491110  RH  031%=      5-min Rain = 0
KDO1 122023Z 13008KT 05/M11 A3019 RMK A01 T00471111  RH  031%=      5-min Rain = 0
KDO1 122024Z 13008KT 05/M11 A3019 RMK A01 T00471111  RH  031%=      5-min Rain = 0
KDO1 122025Z 13009KT 05/M11 A3019 RMK A01 T00461111  RH  031%=      5-min Rain = 0
KDO1 122026Z 15010KT 05/M11 A3019 RMK A01 T00471109  RH  031%=      5-min Rain = 0
KDO1 122027Z 14011KT 05/M11 A3019 RMK A01 T00501110  RH  031%=      5-min Rain = 0
KDO1 122028Z 14009KT 05/M11 A3019 RMK A01 T00491111  RH  030%=      5-min Rain = 0
KDO1 122029Z 14007KT 05/M11 A3019 RMK A01 T00471112  RH  031%=      5-min Rain = 0
KDO1 122030Z 17005KT 05/M11 A3019 RMK A01 T00451112  RH  031%=      5-min Rain = 0
KDO1 122031Z 17008KT 05/M11 A3019 RMK A01 T00461109  RH  031%=      5-min Rain = 0
KDO1 122032Z 19009KT 05/M11 A3019 RMK A01 T00491110  RH  031%=      5-min Rain = 0
KDO1 122033Z 18009KT 05/M11 A3019 RMK A01 T00481111  RH  030%=      5-min Rain = 0
KDO1 122034Z 16007KT 05/M11 A3019 RMK A01 T00481110  RH  031%=      5-min Rain = 0
KDO1 122035Z 15007KT 05/M11 A3019 RMK A01 T00521107  RH  030%=      5-min Rain = 0
KDO1 122036Z 16007KT 05/M11 A3019 RMK A01 T00541109  RH  030%=      5-min Rain = 0
KDO1 122037Z 15010KT 05/M11 A3019 RMK A01 T00531110  RH  030%=      5-min Rain = 0
KDO1 122038Z 15009KT 05/M11 A302 RMK A01 T00511111  RH  030%=      5-min Rain = 0
KDO1 122039Z 15008KT 05/M11 A3019 RMK A01 T00511111  RH  030%=      5-min Rain = 0
KDO1 122040Z 16011KT 05/M11 A3019 RMK A01 T00511111  RH  030%=      5-min Rain = 0
KDO1 122041Z 16010KT 05/M11 A3019 RMK A01 T00511112  RH  030%=      5-min Rain = 0
KDO1 122042Z 16009KT 05/M11 A302 RMK A01 T00501112  RH  030%=      5-min Rain = 0
KDO1 122043Z 15009KT 05/M11 A302 RMK A01 T00491112  RH  030%=      5-min Rain = 0
KDO1 122044Z 15009KT 05/M11 A302 RMK A01 T00501111  RH  030%=      5-min Rain = 0
KDO1 122045Z 16009KT 05/M11 A302 RMK A01 T00511111  RH  030%=      5-min Rain = 0
KDO1 122046Z 15010KT 05/M11 A3019 RMK A01 T00511110  RH  030%=      5-min Rain = 0
KDO1 122047Z 15007KT 05/M11 A302 RMK A01 T00511111  RH  030%=      5-min Rain = 0
KDO1 122048Z 14008KT 05/M11 A3019 RMK A01 T00491112  RH  030%=      5-min Rain = 0
KDO1 122049Z 15008KT 05/M11 A3019 RMK A01 T00501111  RH  030%=      5-min Rain = 0
KDO1 122050Z 13009KT 05/M11 A3019 RMK A01 T00521111  RH  030%=      5-min Rain = 0
KDO1 122051Z 14009KT 05/M11 A3019 RMK A01 T00511112  RH  030%=      5-min Rain = 0
KDO1 122052Z 15010KT 05/M11 A3019 RMK A01 T00521111  RH  030%=      5-min Rain = 0
KDO1 122053Z 16008KT 05/M11 A3019 RMK A01 T00521112  RH  029%=      5-min Rain = 0
KDO1 122054Z 17007KT 05/M11 A3019 RMK A01 T00521113  RH  029%=      5-min Rain = 0
KDO1 122055Z 14009G15KT 05/M11 A3019 RMK A01 T00511112  RH  030%=      5-min Rain = 0
KDO1 122056Z 16011KT 06/M11 A3019 RMK A01 T00551111  RH  029%=      5-min Rain = 0
KDO1 122057Z 15009KT 05/M11 A302 RMK A01 T00541113  RH  029%=      5-min Rain = 0
KDO1 122058Z 14010KT 05/M11 A302 RMK A01 T00541113  RH  029%=      5-min Rain = 0
KDO1 122059Z 14008KT 05/M11 A302 RMK A01 T00541113  RH  029%=      5-min Rain = 0
KDO1 122100Z 14009KT 05/M11 A302 RMK A01 T00541113  RH  029%=      5-min Rain = 0
KDO1 122101Z 13009KT 05/M11 A302 RMK A01 T00541112  RH  029%=      5-min Rain = 0
KDO1 122102Z 12011KT 05/M11 A302 RMK A01 T00541113  RH  029%=      5-min Rain = 0
KDO1 122103Z 12011KT 05/M11 A302 RMK A01 T00531114  RH  029%=      5-min Rain = 0
KDO1 122104Z 13009KT 05/M11 A302 RMK A01 T00521114  RH  029%=      5-min Rain = 0
KDO1 122105Z 14008KT 05/M11 A302 RMK A01 T00511114  RH  029%=      5-min Rain = 0
KDO1 122106Z 16010KT 05/M11 A302 RMK A01 T00501114  RH  029%=      5-min Rain = 0
KDO1 122107Z 14010KT 05/M11 A302 RMK A01 T00521113  RH  029%=      5-min Rain = 0
KDO1 122108Z 15008KT 05/M11 A302 RMK A01 T00531113  RH  029%=      5-min Rain = 0
KDO1 122109Z 14009KT 06/M11 A302 RMK A01 T00551112  RH  029%=      5-min Rain = 0
KDO1 122110Z 14011KT 05/M11 A302 RMK A01 T00541114  RH  029%=      5-min Rain = 0
KDO1 122111Z 13010KT 05/M11 A302 RMK A01 T00531114  RH  029%=      5-min Rain = 0
KDO1 122112Z 14008KT 05/M11 A302 RMK A01 T00521114  RH  029%=      5-min Rain = 0
KDO1 122113Z 15010KT 05/M11 A302 RMK A01 T00531114  RH  029%=      5-min Rain = 0
KDO1 122114Z 15010KT 05/M12 A302 RMK A01 T00541115  RH  028%=      5-min Rain = 0
KDO1 122115Z 13009KT 05/M12 A302 RMK A01 T00531116  RH  029%=      5-min Rain = 0
KDO1 122116Z 14010KT 05/M12 A302 RMK A01 T00521115  RH  029%=      5-min Rain = 0
KDO1 122117Z 14010KT 05/M12 A302 RMK A01 T00521116  RH  029%=      5-min Rain = 0
KDO1 122118Z 14010KT 05/M12 A302 RMK A01 T00521115  RH  029%=      5-min Rain = 0
KDO1 122119Z 14010KT 05/M12 A302 RMK A01 T00521115  RH  029%=      5-min Rain = 0
KDO1 122120Z 13010KT 05/M12 A302 RMK A01 T00521115  RH  029%=      5-min Rain = 0
KDO1 122121Z 14011KT 05/M11 A302 RMK A01 T00541114  RH  029%=      5-min Rain = 0
KDO1 122122Z 14011KT 06/M12 A302 RMK A01 T00551115  RH  028%=      5-min Rain = 0
KDO1 122123Z 13009KT 05/M12 A302 RMK A01 T00541116  RH  028%=      5-min Rain = 0
KDO1 122124Z 15008KT 06/M11 A302 RMK A01 T00551114  RH  028%=      5-min Rain = 0
KDO1 122125Z 16010KT 06/M12 A302 RMK A01 T00561115  RH  028%=      5-min Rain = 0
KDO1 122126Z 14008KT 06/M12 A302 RMK A01 T00551116  RH  028%=      5-min Rain = 0
KDO1 122127Z 15010KT 06/M12 A302 RMK A01 T00551115  RH  028%=      5-min Rain = 0
KDO1 122128Z 14010KT 06/M12 A302 RMK A01 T00561115  RH  028%=      5-min Rain = 0
KDO1 122129Z 13009KT 06/M12 A302 RMK A01 T00571115  RH  028%=      5-min Rain = 0
KDO1 122130Z 12008KT 06/M12 A302 RMK A01 T00571115  RH  028%=      5-min Rain = 0
KDO1 122131Z 13010KT 06/M12 A302 RMK A01 T00571115  RH  028%=      5-min Rain = 0
KDO1 122132Z 14011KT 06/M12 A302 RMK A01 T00561116  RH  028%=      5-min Rain = 0
KDO1 122133Z 14013KT 05/M12 A302 RMK A01 T00541117  RH  028%=      5-min Rain = 0
KDO1 122134Z 13012KT 05/M12 A302 RMK A01 T00521117  RH  028%=      5-min Rain = 0
KDO1 122135Z 12011KT 05/M12 A302 RMK A01 T00521116  RH  029%=      5-min Rain = 0
KDO1 122136Z 12010KT 05/M12 A302 RMK A01 T00521116  RH  029%=      5-min Rain = 0
KDO1 122137Z 13012KT 05/M12 A3021 RMK A01 T00521116  RH  028%=      5-min Rain = 0
KDO1 122138Z 14011KT 05/M12 A3021 RMK A01 T00531117  RH  028%=      5-min Rain = 0
KDO1 122139Z 14010KT 05/M12 A3021 RMK A01 T00521118  RH  028%=      5-min Rain = 0
KDO1 122140Z 14008KT 05/M12 A3021 RMK A01 T00511118  RH  028%=      5-min Rain = 0
KDO1 122141Z 12010KT 05/M12 A3021 RMK A01 T00521117  RH  028%=      5-min Rain = 0
KDO1 122142Z 14009KT 05/M12 A3021 RMK A01 T00521117  RH  028%=      5-min Rain = 0
KDO1 122143Z 11009KT 05/M12 A3021 RMK A01 T00511117  RH  028%=      5-min Rain = 0
KDO1 122144Z 12009KT 05/M12 A3021 RMK A01 T00511117  RH  028%=      5-min Rain = 0
KDO1 122145Z 12011KT 05/M12 A3021 RMK A01 T00511117  RH  028%=      5-min Rain = 0
KDO1 122146Z 13009KT 05/M12 A3021 RMK A01 T00521118  RH  028%=      5-min Rain = 0
KDO1 122147Z 14010KT 05/M12 A3021 RMK A01 T00521118  RH  028%=      5-min Rain = 0
KDO1 122148Z 14012KT 05/M12 A3021 RMK A01 T00521118  RH  028%=      5-min Rain = 0
KDO1 122149Z 14012KT 05/M12 A3021 RMK A01 T00521119  RH  028%=      5-min Rain = 0
KDO1 122150Z 13009KT 05/M12 A3021 RMK A01 T00501120  RH  028%=      5-min Rain = 0
KDO1 122151Z 14010KT 05/M12 A3021 RMK A01 T00501119  RH  028%=      5-min Rain = 0
KDO1 122152Z 13010KT 05/M12 A3021 RMK A01 T00491119  RH  028%=      5-min Rain = 0
KDO1 122153Z 12009KT 05/M12 A3021 RMK A01 T00501118  RH  028%=      5-min Rain = 0
KDO1 122154Z 13009KT 05/M12 A3021 RMK A01 T00501118  RH  028%=      5-min Rain = 0
KDO1 122155Z 14009KT 05/M12 A3021 RMK A01 T00521118  RH  028%=      5-min Rain = 0
KDO1 122156Z 13006KT 05/M12 A3021 RMK A01 T00511120  RH  028%=      5-min Rain = 0
KDO1 122157Z 14009KT 05/M12 A3021 RMK A01 T00511120  RH  028%=      5-min Rain = 0
KDO1 122158Z 13011KT 05/M12 A3021 RMK A01 T00521121  RH  028%=      5-min Rain = 0
KDO1 122159Z 14009KT 05/M12 A3021 RMK A01 T00511122  RH  027%=      5-min Rain = 0
KDO1 122200Z 14010KT 05/M12 A3021 RMK A01 T00501122  RH  028%=      5-min Rain = 0
KDO1 122201Z 14011KT 05/M12 A3021 RMK A01 T00511121  RH  028%=      5-min Rain = 0
KDO1 122202Z 13012KT 05/M12 A3021 RMK A01 T00501122  RH  027%=      5-min Rain = 0
KDO1 122203Z 13008KT 05/M12 A3021 RMK A01 T00491123  RH  028%=      5-min Rain = 0
KDO1 122204Z 13010KT 05/M12 A3021 RMK A01 T00491123  RH  028%=      5-min Rain = 0
KDO1 122205Z 13011KT 05/M12 A3021 RMK A01 T00491122  RH  028%=      5-min Rain = 0
KDO1 122206Z 13009KT 05/M12 A3021 RMK A01 T00491122  RH  028%=      5-min Rain = 0
KDO1 122207Z 13006KT 05/M12 A3021 RMK A01 T00491122  RH  028%=      5-min Rain = 0
KDO1 122208Z 13010KT 05/M12 A3021 RMK A01 T00501121  RH  028%=      5-min Rain = 0
KDO1 122209Z 13009KT 05/M12 A3022 RMK A01 T00511121  RH  028%=      5-min Rain = 0
KDO1 122210Z 13010KT 05/M12 A3022 RMK A01 T00501122  RH  028%=      5-min Rain = 0
KDO1 122211Z 14008KT 05/M12 A3022 RMK A01 T00491122  RH  028%=      5-min Rain = 0
KDO1 122212Z 13011KT 05/M12 A3022 RMK A01 T00491122  RH  028%=      5-min Rain = 0
KDO1 122213Z 14008KT 05/M12 A3022 RMK A01 T00501121  RH  028%=      5-min Rain = 0
KDO1 122214Z 12011KT 05/M12 A3022 RMK A01 T00511122  RH  027%=      5-min Rain = 0
KDO1 122215Z 13011KT 05/M12 A3022 RMK A01 T00501123  RH  027%=      5-min Rain = 0
KDO1 122216Z 13009KT 05/M12 A3022 RMK A01 T00481124  RH  028%=      5-min Rain = 0
KDO1 122217Z 13009KT 05/M12 A3022 RMK A01 T00481123  RH  028%=      5-min Rain = 0
KDO1 122218Z 13009KT 05/M12 A3022 RMK A01 T00471123  RH  028%=      5-min Rain = 0
KDO1 122219Z 11011KT 05/M12 A3022 RMK A01 T00481123  RH  028%=      5-min Rain = 0
KDO1 122220Z 11010KT 05/M12 A3022 RMK A01 T00471123  RH  028%=      5-min Rain = 0
KDO1 122221Z 11011KT 05/M12 A3022 RMK A01 T00481123  RH  028%=      5-min Rain = 0
KDO1 122222Z 10009KT 05/M12 A3022 RMK A01 T00481123  RH  028%=      5-min Rain = 0
KDO1 122223Z 12010KT 05/M12 A3022 RMK A01 T00481124  RH  028%=      5-min Rain = 0
KDO1 122224Z 11009KT 05/M12 A3022 RMK A01 T00481124  RH  028%=      5-min Rain = 0
KDO1 122225Z 12010KT 05/M12 A3022 RMK A01 T00471123  RH  028%=      5-min Rain = 0
KDO1 122226Z 13009KT 05/M12 A3022 RMK A01 T00471123  RH  028%=      5-min Rain = 0
KDO1 122227Z 12007KT 05/M12 A3023 RMK A01 T00471123  RH  028%=      5-min Rain = 0
KDO1 122228Z 13007KT 05/M12 A3023 RMK A01 T00471123  RH  028%=      5-min Rain = 0
KDO1 122229Z 13009KT 05/M12 A3023 RMK A01 T00471123  RH  028%=      5-min Rain = 0
KDO1 122230Z 12010KT 05/M12 A3023 RMK A01 T00471123  RH  028%=      5-min Rain = 0
KDO1 122231Z 12010KT 05/M12 A3023 RMK A01 T00471124  RH  028%=      5-min Rain = 0
KDO1 122232Z 13010KT 05/M12 A3023 RMK A01 T00461124  RH  028%=      5-min Rain = 0
KDO1 122233Z 13009KT 04/M13 A3023 RMK A01 T00441125  RH  028%=      5-min Rain = 0
KDO1 122234Z 12011KT 04/M12 A3023 RMK A01 T00441124  RH  028%=      5-min Rain = 0
KDO1 122235Z 12010KT 04/M13 A3023 RMK A01 T00441125  RH  028%=      5-min Rain = 0
KDO1 122236Z 12009KT 05/M12 A3023 RMK A01 T00451124  RH  028%=      5-min Rain = 0
KDO1 122237Z 13010KT 05/M12 A3023 RMK A01 T00451124  RH  028%=      5-min Rain = 0
KDO1 122238Z 12010KT 04/M12 A3023 RMK A01 T00441124  RH  028%=      5-min Rain = 0
KDO1 122239Z 11009KT 04/M13 A3023 RMK A01 T00441125  RH  028%=      5-min Rain = 0
KDO1 122240Z 11009KT 04/M13 A3023 RMK A01 T00431125  RH  028%=      5-min Rain = 0
KDO1 122241Z 13007KT 04/M13 A3023 RMK A01 T00431125  RH  028%=      5-min Rain = 0
KDO1 122242Z 12008KT 04/M12 A3023 RMK A01 T00441124  RH  028%=      5-min Rain = 0
KDO1 122243Z 12010KT 04/M12 A3023 RMK A01 T00441124  RH  028%=      5-min Rain = 0
KDO1 122244Z 13009KT 05/M12 A3023 RMK A01 T00451124  RH  028%=      5-min Rain = 0
KDO1 122245Z 13010KT 04/M13 A3023 RMK A01 T00441125  RH  028%=      5-min Rain = 0
KDO1 122246Z 13009KT 04/M13 A3023 RMK A01 T00431125  RH  028%=      5-min Rain = 0
KDO1 122247Z 13010KT 04/M12 A3023 RMK A01 T00431124  RH  028%=      5-min Rain = 0
KDO1 122248Z 11010KT 04/M12 A3023 RMK A01 T00431124  RH  028%=      5-min Rain = 0
KDO1 122249Z 11008KT 04/M12 A3023 RMK A01 T00431124  RH  028%=      5-min Rain = 0
KDO1 122250Z 13007KT 04/M12 A3023 RMK A01 T00431124  RH  029%=      5-min Rain = 0
KDO1 122251Z 12011KT 04/M12 A3023 RMK A01 T00431124  RH  029%=      5-min Rain = 0
KDO1 122252Z 13011KT 04/M12 A3023 RMK A01 T00431124  RH  028%=      5-min Rain = 0
KDO1 122253Z 13010KT 04/M13 A3023 RMK A01 T00421125  RH  028%=      5-min Rain = 0
KDO1 122254Z 12007KT 04/M13 A3023 RMK A01 T00411125  RH  029%=      5-min Rain = 0
KDO1 122255Z 12007KT 04/M13 A3023 RMK A01 T00411125  RH  029%=      5-min Rain = 0
KDO1 122256Z 11008KT 04/M13 A3023 RMK A01 T00411125  RH  029%=      5-min Rain = 0
KDO1 122257Z 13009KT 04/M13 A3023 RMK A01 T00421125  RH  029%=      5-min Rain = 0
KDO1 122258Z 13010KT 04/M13 A3023 RMK A01 T00411125  RH  029%=      5-min Rain = 0
KDO1 122259Z 12010KT 04/M13 A3024 RMK A01 T00411125  RH  029%=      5-min Rain = 0
KDO1 122300Z 13009KT 04/M13 A3024 RMK A01 T00411125  RH  029%=      5-min Rain = 0
KDO1 122301Z 13009KT 04/M13 A3024 RMK A01 T00401126  RH  029%=      5-min Rain = 0
KDO1 122302Z 13007KT 04/M13 A3024 RMK A01 T00391126  RH  029%=      5-min Rain = 0
KDO1 122303Z 13007KT 04/M13 A3024 RMK A01 T00391126  RH  029%=      5-min Rain = 0
KDO1 122304Z 13009KT 04/M13 A3024 RMK A01 T00391126  RH  029%=      5-min Rain = 0
KDO1 122305Z 13008KT 04/M13 A3024 RMK A01 T00391126  RH  029%=      5-min Rain = 0
KDO1 122306Z 11008KT 04/M13 A3024 RMK A01 T00391126  RH  029%=      5-min Rain = 0
KDO1 122307Z 12010KT 04/M13 A3024 RMK A01 T00381126  RH  029%=      5-min Rain = 0
KDO1 122308Z 13008KT 04/M13 A3024 RMK A01 T00381126  RH  029%=      5-min Rain = 0
KDO1 122309Z 12008KT 04/M13 A3024 RMK A01 T00381126  RH  029%=      5-min Rain = 0
KDO1 122310Z 11008KT 04/M13 A3025 RMK A01 T00371126  RH  029%=      5-min Rain = 0
KDO1 122311Z 12008KT 04/M13 A3025 RMK A01 T00371126  RH  029%=      5-min Rain = 0
KDO1 122312Z 13006KT 04/M13 A3025 RMK A01 T00361126  RH  029%=      5-min Rain = 0
KDO1 122313Z 12007KT 04/M13 A3025 RMK A01 T00361127  RH  029%=      5-min Rain = 0
KDO1 122314Z 12007KT 04/M13 A3024 RMK A01 T00361127  RH  029%=      5-min Rain = 0
KDO1 122315Z 12009KT 04/M13 A3024 RMK A01 T00351127  RH  029%=      5-min Rain = 0
KDO1 122316Z 12010KT 04/M13 A3024 RMK A01 T00351127  RH  030%=      5-min Rain = 0
KDO1 122317Z 12009KT 03/M13 A3024 RMK A01 T00341127  RH  030%=      5-min Rain = 0
KDO1 122318Z 12007KT 03/M13 A3024 RMK A01 T00341127  RH  030%=      5-min Rain = 0
KDO1 122319Z 13007KT 03/M13 A3024 RMK A01 T00331127  RH  030%=      5-min Rain = 0
KDO1 122320Z 12008KT 03/M13 A3025 RMK A01 T00331127  RH  030%=      5-min Rain = 0
KDO1 122321Z 12007KT 03/M13 A3025 RMK A01 T00331127  RH  030%=      5-min Rain = 0
KDO1 122322Z 11008KT 03/M13 A3025 RMK A01 T00331127  RH  030%=      5-min Rain = 0
KDO1 122323Z 11009KT 03/M13 A3025 RMK A01 T00331127  RH  030%=      5-min Rain = 0
KDO1 122324Z 11008KT 03/M13 A3025 RMK A01 T00321127  RH  030%=      5-min Rain = 0
KDO1 122325Z 11008KT 03/M13 A3025 RMK A01 T00321127  RH  030%=      5-min Rain = 0
KDO1 122326Z 10007KT 03/M13 A3026 RMK A01 T00321127  RH  030%=      5-min Rain = 0
KDO1 122327Z 10008KT 03/M13 A3026 RMK A01 T00321127  RH  030%=      5-min Rain = 0
KDO1 122328Z 10007KT 03/M13 A3026 RMK A01 T00321127  RH  030%=      5-min Rain = 0
KDO1 122329Z 10009KT 03/M13 A3026 RMK A01 T00321127  RH  030%=      5-min Rain = 0
KDO1 122330Z 11009KT 03/M13 A3026 RMK A01 T00311128  RH  030%=      5-min Rain = 0
KDO1 122331Z 11009KT 03/M13 A3026 RMK A01 T00311128  RH  030%=      5-min Rain = 0
KDO1 122332Z 11008KT 03/M13 A3026 RMK A01 T00311128  RH  030%=      5-min Rain = 0
KDO1 122333Z 11007KT 03/M13 A3026 RMK A01 T00301129  RH  030%=      5-min Rain = 0
KDO1 122334Z 11009KT 03/M13 A3026 RMK A01 T00291129  RH  030%=      5-min Rain = 0
KDO1 122335Z 11007KT 03/M13 A3026 RMK A01 T00281129  RH  030%=      5-min Rain = 0
KDO1 122336Z 10006KT 03/M13 A3026 RMK A01 T00281129  RH  030%=      5-min Rain = 0
KDO1 122337Z 10008KT 03/M13 A3026 RMK A01 T00281129  RH  031%=      5-min Rain = 0
KDO1 122338Z 10008KT 03/M13 A3026 RMK A01 T00271129  RH  031%=      5-min Rain = 0
KDO1 122339Z 10007KT 03/M13 A3026 RMK A01 T00261130  RH  031%=      5-min Rain = 0
KDO1 122340Z 11007KT 03/M13 A3026 RMK A01 T00261130  RH  031%=      5-min Rain = 0
KDO1 122341Z 11008KT 02/M13 A3026 RMK A01 T00241131  RH  031%=      5-min Rain = 0
KDO1 122342Z 11008KT 02/M13 A3026 RMK A01 T00241130  RH  031%=      5-min Rain = 0
KDO1 122343Z 11007KT 02/M13 A3026 RMK A01 T00241130  RH  031%=      5-min Rain = 0
KDO1 122344Z 11007KT 02/M13 A3026 RMK A01 T00231131  RH  031%=      5-min Rain = 0
KDO1 122345Z 11007KT 02/M13 A3026 RMK A01 T00231131  RH  031%=      5-min Rain = 0
KDO1 122346Z 11006KT 02/M13 A3026 RMK A01 T00221131  RH  031%=      5-min Rain = 0
KDO1 122347Z 11006KT 02/M13 A3026 RMK A01 T00211131  RH  031%=      5-min Rain = 0
KDO1 122348Z 11007KT 02/M13 A3026 RMK A01 T00201131  RH  032%=      5-min Rain = 0
KDO1 122349Z 10007KT 02/M13 A3027 RMK A01 T00191132  RH  032%=      5-min Rain = 0
KDO1 122350Z 10007KT 02/M13 A3027 RMK A01 T00191132  RH  032%=      5-min Rain = 0
KDO1 122351Z 10006KT 02/M13 A3027 RMK A01 T00181132  RH  032%=      5-min Rain = 0
KDO1 122352Z 11006KT 02/M13 A3027 RMK A01 T00181132  RH  032%=      5-min Rain = 0
KDO1 122353Z 11006KT 02/M13 A3027 RMK A01 T00171132  RH  032%=      5-min Rain = 0
KDO1 122354Z 11006KT 02/M13 A3027 RMK A01 T00161132  RH  032%=      5-min Rain = 0
KDO1 122355Z 10006KT 02/M13 A3027 RMK A01 T00151133  RH  032%=      5-min Rain = 0
KDO1 122356Z 10005KT 01/M13 A3027 RMK A01 T00141133  RH  032%=      5-min Rain = 0
KDO1 122357Z 10006KT 01/M13 A3027 RMK A01 T00141133  RH  033%=      5-min Rain = 0
KDO1 122358Z 10006KT 01/M13 A3027 RMK A01 T00141133  RH  033%=      5-min Rain = 0
KDO1 122359Z 10006KT 01/M13 A3027 RMK A01 T00131133  RH  033%=      5-min Rain = 0
KDO1 130000Z 10005KT 01/M13 A3027 RMK A01 T00121133  RH  033%=      5-min Rain = 0
KDO1 130001Z 10005KT 01/M13 A3027 RMK A01 T00121134  RH  033%=      5-min Rain = 0
KDO1 130002Z 10005KT 01/M13 A3028 RMK A01 T00111134  RH  033%=      5-min Rain = 0
KDO1 130003Z 10005KT 01/M13 A3028 RMK A01 T00111134  RH  033%=      5-min Rain = 0
KDO1 130004Z 10006KT 01/M13 A3028 RMK A01 T00111133  RH  033%=      5-min Rain = 0
KDO1 130005Z 10006KT 01/M13 A3028 RMK A01 T00101134  RH  033%=      5-min Rain = 0
KDO1 130006Z 10006KT 01/M13 A3027 RMK A01 T00091134  RH  033%=      5-min Rain = 0
KDO1 130007Z 10006KT 01/M13 A3027 RMK A01 T00091134  RH  034%=      5-min Rain = 0
KDO1 130008Z 10005KT 01/M14 A3028 RMK A01 T00081135  RH  034%=      5-min Rain = 0
KDO1 130009Z 10006KT 01/M14 A3028 RMK A01 T00071135  RH  034%=      5-min Rain = 0
KDO1 130010Z 10006KT 01/M13 A3028 RMK A01 T00071134  RH  034%=      5-min Rain = 0
KDO1 130011Z 10006KT 01/M13 A3028 RMK A01 T00071134  RH  034%=      5-min Rain = 0
KDO1 130012Z 10006KT 01/M13 A3028 RMK A01 T00071134  RH  034%=      5-min Rain = 0
KDO1 130013Z 10006KT 01/M14 A3028 RMK A01 T00061135  RH  034%=      5-min Rain = 0
KDO1 130014Z 09006KT 01/M14 A3028 RMK A01 T00051135  RH  034%=      5-min Rain = 0
KDO1 130015Z 09006KT 01/M14 A3029 RMK A01 T00051135  RH  034%=      5-min Rain = 0
KDO1 130016Z 09007KT 01/M14 A3029 RMK A01 T00051135  RH  034%=      5-min Rain = 0
KDO1 130017Z 09006KT 01/M14 A3029 RMK A01 T00051135  RH  034%=      5-min Rain = 0
KDO1 130018Z 09007KT 01/M14 A3029 RMK A01 T00051135  RH  034%=      5-min Rain = 0
KDO1 130019Z 10007KT 01/M14 A3029 RMK A01 T00051135  RH  034%=      5-min Rain = 0
KDO1 130020Z 09007KT 01/M14 A3028 RMK A01 T00051135  RH  034%=      5-min Rain = 0
KDO1 130021Z 09007KT 00/M14 A3028 RMK A01 T00041136  RH  034%=      5-min Rain = 0
KDO1 130022Z 09006KT 00/M14 A3029 RMK A01 T00041136  RH  034%=      5-min Rain = 0
KDO1 130023Z 09007KT 00/M14 A3029 RMK A01 T00041135  RH  034%=      5-min Rain = 0
KDO1 130024Z 09006KT 00/M14 A3029 RMK A01 T00031136  RH  034%=      5-min Rain = 0
KDO1 130025Z 09006KT 00/M14 A3029 RMK A01 T00031136  RH  035%=      5-min Rain = 0
KDO1 130026Z 09006KT 00/M14 A3029 RMK A01 T00031135  RH  035%=      5-min Rain = 0
KDO1 130027Z 09006KT 00/M14 A3029 RMK A01 T00021136  RH  035%=      5-min Rain = 0
KDO1 130028Z 09005KT 00/M14 A3029 RMK A01 T00021136  RH  035%=      5-min Rain = 0
KDO1 130029Z 09005KT 00/M14 A303 RMK A01 T00011136  RH  035%=      5-min Rain = 0
KDO1 130030Z 08005KT 00/M14 A303 RMK A01 T00011136  RH  035%=      5-min Rain = 0
KDO1 130031Z 08005KT 00/14 A303 RMK A01 T00000-136  RH  035%=      5-min Rain = 0
KDO1 130032Z 07005KT 00/14 A303 RMK A01 T00-00-136  RH  035%=      5-min Rain = 0
KDO1 130033Z 07005KT M00/M14 A303 RMK A01 T10011136  RH  035%=      5-min Rain = 0
KDO1 130034Z 07005KT M00/M14 A303 RMK A01 T10011136  RH  035%=      5-min Rain = 0
KDO1 130035Z 06006KT M00/M14 A303 RMK A01 T10011137  RH  035%=      5-min Rain = 0
KDO1 130036Z 05007KT M00/M14 A303 RMK A01 T10021137  RH  035%=      5-min Rain = 0
KDO1 130037Z 07006KT M00/M14 A303 RMK A01 T10021137  RH  035%=      5-min Rain = 0
KDO1 130038Z 07006KT M00/M14 A303 RMK A01 T10021137  RH  036%=      5-min Rain = 0
KDO1 130039Z 07006KT M00/M14 A3031 RMK A01 T10031137  RH  036%=      5-min Rain = 0
KDO1 130040Z 07005KT M00/M14 A3031 RMK A01 T10031137  RH  036%=      5-min Rain = 0
KDO1 130041Z 07005KT M00/M14 A3031 RMK A01 T10031138  RH  035%=      5-min Rain = 0
KDO1 130042Z 06005KT M00/M14 A3031 RMK A01 T10031138  RH  035%=      5-min Rain = 0
KDO1 130043Z 06005KT M00/M14 A3031 RMK A01 T10041138  RH  036%=      5-min Rain = 0
KDO1 130044Z 06006KT M00/M14 A3031 RMK A01 T10041138  RH  036%=      5-min Rain = 0
KDO1 130045Z 06006KT M00/M14 A3031 RMK A01 T10041138  RH  036%=      5-min Rain = 0
KDO1 130046Z 07007KT M00/M14 A3031 RMK A01 T10041138  RH  036%=      5-min Rain = 0
KDO1 130047Z 07007KT M00/M14 A3031 RMK A01 T10031137  RH  036%=      5-min Rain = 0
KDO1 130048Z 08008KT M00/M14 A3031 RMK A01 T10031138  RH  035%=      5-min Rain = 0
KDO1 130049Z 08008KT M00/M14 A3031 RMK A01 T10031138  RH  035%=      5-min Rain = 0
KDO1 130050Z 08007KT M00/M14 A3031 RMK A01 T10021138  RH  035%=      5-min Rain = 0
KDO1 130051Z 08008KT M00/M14 A3031 RMK A01 T10031138  RH  035%=      5-min Rain = 0
KDO1 130052Z 08007KT M00/M14 A3031 RMK A01 T10031138  RH  035%=      5-min Rain = 0
KDO1 130053Z 08006KT M00/M14 A3031 RMK A01 T10041138  RH  035%=      5-min Rain = 0
KDO1 130054Z 08007KT M00/M14 A3031 RMK A01 T10041138  RH  036%=      5-min Rain = 0
KDO1 130055Z 08007KT M01/M14 A3031 RMK A01 T10051139  RH  036%=      5-min Rain = 0
KDO1 130056Z 07007KT M01/M14 A3031 RMK A01 T10051139  RH  036%=      5-min Rain = 0
KDO1 130057Z 07007KT M01/M14 A3031 RMK A01 T10061139  RH  036%=      5-min Rain = 0
KDO1 130058Z 07006KT M01/M14 A3032 RMK A01 T10061139  RH  036%=      5-min Rain = 0
KDO1 130059Z 07006KT M01/M14 A3032 RMK A01 T10061139  RH  036%=      5-min Rain = 0
KDO1 130100Z 07006KT M01/M14 A3032 RMK A01 T10061138  RH  036%=      5-min Rain = 0
KDO1 130101Z 07006KT M01/M14 A3032 RMK A01 T10071139  RH  036%=      5-min Rain = 0
KDO1 130102Z 07006KT M01/M14 A3032 RMK A01 T10061139  RH  036%=      5-min Rain = 0
KDO1 130103Z 08006KT M01/M14 A3032 RMK A01 T10071139  RH  036%=      5-min Rain = 0
KDO1 130104Z 08006KT M01/M14 A3032 RMK A01 T10071139  RH  036%=      5-min Rain = 0
KDO1 130105Z 08006KT M01/M14 A3032 RMK A01 T10061138  RH  036%=      5-min Rain = 0
KDO1 130106Z 07006KT M01/M14 A3032 RMK A01 T10061138  RH  036%=      5-min Rain = 0
KDO1 130107Z 07005KT M01/M14 A3032 RMK A01 T10071138  RH  036%=      5-min Rain = 0
KDO1 130108Z 06005KT M01/M14 A3032 RMK A01 T10071138  RH  036%=      5-min Rain = 0
KDO1 130109Z 06006KT M01/M14 A3032 RMK A01 T10071139  RH  036%=      5-min Rain = 0
KDO1 130110Z 07007KT M01/M14 A3032 RMK A01 T10061138  RH  036%=      5-min Rain = 0
KDO1 130111Z 07007KT M01/M14 A3032 RMK A01 T10061138  RH  036%=      5-min Rain = 0
KDO1 130112Z 07007KT M01/M14 A3032 RMK A01 T10061138  RH  036%=      5-min Rain = 0
KDO1 130113Z 07007KT M01/M14 A3032 RMK A01 T10051138  RH  036%=      5-min Rain = 0
KDO1 130114Z 07006KT M01/M14 A3032 RMK A01 T10051138  RH  036%=      5-min Rain = 0
KDO1 130115Z 07007KT M01/M14 A3033 RMK A01 T10051138  RH  036%=      5-min Rain = 0
KDO1 130116Z 07006KT M01/M14 A3033 RMK A01 T10051139  RH  036%=      5-min Rain = 0
KDO1 130117Z 06006KT M01/M14 A3033 RMK A01 T10051138  RH  036%=      5-min Rain = 0
KDO1 130118Z 07006KT M01/M14 A3033 RMK A01 T10051138  RH  036%=      5-min Rain = 0
KDO1 130119Z 07006KT M01/M14 A3033 RMK A01 T10051138  RH  036%=      5-min Rain = 0
KDO1 130120Z 07006KT M01/M14 A3033 RMK A01 T10051138  RH  036%=      5-min Rain = 0
KDO1 130121Z 07006KT M01/M14 A3033 RMK A01 T10051138  RH  036%=      5-min Rain = 0
KDO1 130122Z 07006KT M01/M14 A3033 RMK A01 T10051138  RH  036%=      5-min Rain = 0
KDO1 130123Z 07006KT M01/M14 A3033 RMK A01 T10051138  RH  036%=      5-min Rain = 0
KDO1 130124Z 07006KT M01/M14 A3033 RMK A01 T10051138  RH  036%=      5-min Rain = 0
KDO1 130125Z 07005KT M01/M14 A3033 RMK A01 T10051138  RH  036%=      5-min Rain = 0
KDO1 130126Z 07005KT M01/M14 A3033 RMK A01 T10051139  RH  036%=      5-min Rain = 0
KDO1 130127Z 07006KT M01/M14 A3033 RMK A01 T10061139  RH  036%=      5-min Rain = 0
KDO1 130128Z 07006KT M01/M14 A3033 RMK A01 T10061139  RH  036%=      5-min Rain = 0
KDO1 130129Z 07006KT M01/M14 A3033 RMK A01 T10061139  RH  036%=      5-min Rain = 0
KDO1 130130Z 07006KT M01/M14 A3033 RMK A01 T10061139  RH  036%=      5-min Rain = 0
KDO1 130131Z 08005KT M01/M14 A3033 RMK A01 T10061139  RH  036%=      5-min Rain = 0
KDO1 130132Z 07006KT M01/M14 A3033 RMK A01 T10071139  RH  036%=      5-min Rain = 0
KDO1 130133Z 08006KT M01/M14 A3033 RMK A01 T10081140  RH  036%=      5-min Rain = 0
KDO1 130134Z 08007KT M01/M14 A3033 RMK A01 T10081140  RH  036%=      5-min Rain = 0
KDO1 130135Z 08006KT M01/M14 A3033 RMK A01 T10081140  RH  036%=      5-min Rain = 0
KDO1 130136Z 08006KT M01/M14 A3033 RMK A01 T10081140  RH  036%=      5-min Rain = 0
KDO1 130137Z 08006KT M01/M14 A3033 RMK A01 T10091140  RH  036%=      5-min Rain = 0
KDO1 130138Z 08006KT M01/M14 A3033 RMK A01 T10091140  RH  036%=      5-min Rain = 0
KDO1 130139Z 08005KT M01/M14 A3033 RMK A01 T10101140  RH  036%=      5-min Rain = 0
KDO1 130140Z 08006KT M01/M14 A3033 RMK A01 T10101140  RH  037%=      5-min Rain = 0
KDO1 130141Z 08005KT M01/M14 A3033 RMK A01 T10101140  RH  036%=      5-min Rain = 0
KDO1 130142Z 08006KT M01/M14 A3033 RMK A01 T10101140  RH  036%=      5-min Rain = 0
KDO1 130143Z 08006KT M01/M14 A3033 RMK A01 T10101141  RH  037%=      5-min Rain = 0
KDO1 130144Z 08006KT M01/M14 A3033 RMK A01 T10111141  RH  037%=      5-min Rain = 0
KDO1 130145Z 08006KT M01/M14 A3033 RMK A01 T10111141  RH  037%=      5-min Rain = 0
KDO1 130146Z 08006KT M01/M14 A3033 RMK A01 T10121141  RH  037%=      5-min Rain = 0
KDO1 130147Z 09005KT M01/M14 A3033 RMK A01 T10121141  RH  037%=      5-min Rain = 0
KDO1 130148Z 08006KT M01/M14 A3033 RMK A01 T10121141  RH  037%=      5-min Rain = 0
KDO1 130149Z 08006KT M01/M14 A3033 RMK A01 T10121141  RH  037%=      5-min Rain = 0
KDO1 130150Z 08005KT M01/M14 A3033 RMK A01 T10111141  RH  037%=      5-min Rain = 0
KDO1 130151Z 08005KT M01/M14 A3033 RMK A01 T10121141  RH  037%=      5-min Rain = 0
KDO1 130152Z 08005KT M01/M14 A3033 RMK A01 T10131141  RH  037%=      5-min Rain = 0
KDO1 130153Z 08005KT M01/M14 A3033 RMK A01 T10121141  RH  037%=      5-min Rain = 0
KDO1 130154Z 08005KT M01/M14 A3034 RMK A01 T10131141  RH  037%=      5-min Rain = 0
KDO1 130155Z 08005KT M01/M14 A3034 RMK A01 T10131141  RH  037%=      5-min Rain = 0
KDO1 130156Z 08005KT M01/M14 A3034 RMK A01 T10131141  RH  037%=      5-min Rain = 0
KDO1 130157Z 08005KT M01/M14 A3034 RMK A01 T10131141  RH  037%=      5-min Rain = 0
KDO1 130158Z 08004KT M01/M14 A3034 RMK A01 T10131141  RH  037%=      5-min Rain = 0
KDO1 130159Z 07004KT M01/M14 A3034 RMK A01 T10141141  RH  037%=      5-min Rain = 0
KDO1 130200Z 07004KT M01/M14 A3034 RMK A01 T10141141  RH  037%=      5-min Rain = 0
KDO1 130201Z 07004KT M01/M14 A3034 RMK A01 T10141141  RH  037%=      5-min Rain = 0
KDO1 130202Z 07004KT M01/M14 A3034 RMK A01 T10141141  RH  037%=      5-min Rain = 0
KDO1 130203Z 07005KT M01/M14 A3034 RMK A01 T10141141  RH  037%=      5-min Rain = 0
KDO1 130204Z 06005KT M01/M14 A3034 RMK A01 T10141141  RH  037%=      5-min Rain = 0
KDO1 130205Z 06005KT M01/M14 A3034 RMK A01 T10141141  RH  037%=      5-min Rain = 0
KDO1 130206Z 06005KT M01/M14 A3034 RMK A01 T10141141  RH  037%=      5-min Rain = 0
KDO1 130207Z 06005KT M01/M14 A3034 RMK A01 T10141141  RH  037%=      5-min Rain = 0
KDO1 130208Z 06005KT M01/M14 A3034 RMK A01 T10141141  RH  037%=      5-min Rain = 0
KDO1 130209Z 06005KT M01/M14 A3035 RMK A01 T10141141  RH  037%=      5-min Rain = 0
KDO1 130210Z 05005KT M01/M14 A3035 RMK A01 T10141141  RH  037%=      5-min Rain = 0
KDO1 130211Z 05004KT M01/M14 A3035 RMK A01 T10141141  RH  037%=      5-min Rain = 0
KDO1 130212Z 05004KT M01/M14 A3035 RMK A01 T10141141  RH  037%=      5-min Rain = 0
KDO1 130213Z 05004KT M01/M14 A3035 RMK A01 T10141141  RH  037%=      5-min Rain = 0
KDO1 130214Z 04004KT M01/M14 A3035 RMK A01 T10141141  RH  037%=      5-min Rain = 0
KDO1 130215Z 04004KT M01/M14 A3035 RMK A01 T10141141  RH  037%=      5-min Rain = 0
KDO1 130216Z 03004KT M01/M14 A3035 RMK A01 T10141140  RH  037%=      5-min Rain = 0
KDO1 130217Z 04004KT M01/M14 A3036 RMK A01 T10141141  RH  037%=      5-min Rain = 0
KDO1 130218Z 03003KT M01/M14 A3036 RMK A01 T10141141  RH  037%=      5-min Rain = 0
KDO1 130219Z 04004KT M01/M14 A3036 RMK A01 T10141141  RH  037%=      5-min Rain = 0
KDO1 130220Z 03004KT M01/M14 A3036 RMK A01 T10141141  RH  037%=      5-min Rain = 0
KDO1 130221Z 02003KT M01/M14 A3036 RMK A01 T10141141  RH  037%=      5-min Rain = 0
KDO1 130222Z 02003KT M01/M14 A3036 RMK A01 T10141141  RH  037%=      5-min Rain = 0
KDO1 130223Z 03003KT M01/M14 A3036 RMK A01 T10141141  RH  037%=      5-min Rain = 0
KDO1 130224Z 04002KT M01/M14 A3036 RMK A01 T10141141  RH  037%=      5-min Rain = 0
KDO1 130225Z 05002KT M01/M14 A3036 RMK A01 T10141141  RH  037%=      5-min Rain = 0
KDO1 130226Z 06003KT M01/M14 A3036 RMK A01 T10141142  RH  037%=      5-min Rain = 0
KDO1 130227Z 06003KT M01/M14 A3036 RMK A01 T10131141  RH  037%=      5-min Rain = 0
KDO1 130228Z 07002KT M01/M14 A3036 RMK A01 T10131141  RH  037%=      5-min Rain = 0
KDO1 130229Z 07003KT M01/M14 A3036 RMK A01 T10131141  RH  037%=      5-min Rain = 0
KDO1 130230Z 06002KT M01/M14 A3036 RMK A01 T10141142  RH  037%=      5-min Rain = 0
KDO1 130231Z 05002KT M01/M14 A3036 RMK A01 T10141141  RH  037%=      5-min Rain = 0
KDO1 130232Z 05002KT M01/M14 A3036 RMK A01 T10141142  RH  037%=      5-min Rain = 0
KDO1 130233Z 06003KT M01/M14 A3036 RMK A01 T10141141  RH  037%=      5-min Rain = 0
KDO1 130234Z 06002KT M02/M14 A3036 RMK A01 T10151141  RH  037%=      5-min Rain = 0
KDO1 130235Z 07002KT M02/M14 A3036 RMK A01 T10151141  RH  037%=      5-min Rain = 0
KDO1 130236Z 06002KT M02/M14 A3036 RMK A01 T10151142  RH  038%=      5-min Rain = 0
KDO1 130237Z 06002KT M02/M14 A3037 RMK A01 T10151142  RH  038%=      5-min Rain = 0
KDO1 130238Z 05003KT M02/M14 A3037 RMK A01 T10161142  RH  038%=      5-min Rain = 0
KDO1 130239Z 06003KT M02/M14 A3037 RMK A01 T10161142  RH  038%=      5-min Rain = 0
KDO1 130240Z 06003KT M02/M14 A3037 RMK A01 T10161141  RH  038%=      5-min Rain = 0
KDO1 130241Z 05003KT M02/M14 A3037 RMK A01 T10161141  RH  038%=      5-min Rain = 0
KDO1 130242Z 04003KT M02/M14 A3037 RMK A01 T10161142  RH  038%=      5-min Rain = 0
KDO1 130243Z 04003KT M02/M14 A3037 RMK A01 T10161142  RH  038%=      5-min Rain = 0
KDO1 130244Z 04003KT M02/M14 A3037 RMK A01 T10161141  RH  038%=      5-min Rain = 0
KDO1 130245Z 05002KT M02/M14 A3037 RMK A01 T10161141  RH  038%=      5-min Rain = 0
KDO1 130246Z 05002KT M02/M14 A3037 RMK A01 T10161141  RH  038%=      5-min Rain = 0
KDO1 130247Z 04002KT M02/M14 A3037 RMK A01 T10161141  RH  038%=      5-min Rain = 0
KDO1 130248Z 03002KT M02/M14 A3037 RMK A01 T10171142  RH  038%=      5-min Rain = 0
KDO1 130249Z 03002KT M02/M14 A3037 RMK A01 T10171142  RH  038%=      5-min Rain = 0
KDO1 130250Z 03002KT M02/M14 A3038 RMK A01 T10171142  RH  038%=      5-min Rain = 0
KDO1 130251Z 04002KT M02/M14 A3038 RMK A01 T10171142  RH  038%=      5-min Rain = 0
KDO1 130252Z 03003KT M02/M14 A3038 RMK A01 T10171141  RH  038%=      5-min Rain = 0
KDO1 130253Z 03003KT M02/M14 A3038 RMK A01 T10171142  RH  038%=      5-min Rain = 0
KDO1 130254Z 03003KT M02/M14 A3038 RMK A01 T10181142  RH  038%=      5-min Rain = 0
KDO1 130255Z 02003KT M02/M14 A3038 RMK A01 T10181142  RH  038%=      5-min Rain = 0
KDO1 130256Z 02003KT M02/M14 A3038 RMK A01 T10181142  RH  038%=      5-min Rain = 0
KDO1 130257Z 03002KT M02/M14 A3038 RMK A01 T10181142  RH  038%=      5-min Rain = 0
KDO1 130258Z 02003KT M02/M14 A3038 RMK A01 T10191142  RH  038%=      5-min Rain = 0
KDO1 130259Z 03002KT M02/M14 A3038 RMK A01 T10191142  RH  039%=      5-min Rain = 0
KDO1 130300Z 04002KT M02/M14 A3038 RMK A01 T10191142  RH  039%=      5-min Rain = 0
KDO1 130301Z 03003KT M02/M14 A3038 RMK A01 T10191142  RH  039%=      5-min Rain = 0
KDO1 130302Z 03004KT M02/M14 A3038 RMK A01 T10191142  RH  039%=      5-min Rain = 0
KDO1 130303Z 04003KT M02/M14 A3038 RMK A01 T10191142  RH  039%=      5-min Rain = 0
KDO1 130304Z 04003KT M02/M14 A3039 RMK A01 T10201142  RH  039%=      5-min Rain = 0
KDO1 130305Z 04002KT M02/M14 A3039 RMK A01 T10201142  RH  039%=      5-min Rain = 0
KDO1 130306Z 03003KT M02/M14 A3039 RMK A01 T10201143  RH  039%=      5-min Rain = 0
KDO1 130307Z 03003KT M02/M14 A3039 RMK A01 T10201142  RH  039%=      5-min Rain = 0
KDO1 130308Z 04003KT M02/M14 A3039 RMK A01 T10201142  RH  039%=      5-min Rain = 0
KDO1 130309Z 03003KT M02/M14 A3039 RMK A01 T10201143  RH  039%=      5-min Rain = 0
KDO1 130310Z 03002KT M02/M14 A304 RMK A01 T10201143  RH  039%=      5-min Rain = 0
KDO1 130311Z 02003KT M02/M14 A304 RMK A01 T10201143  RH  039%=      5-min Rain = 0
KDO1 130312Z 02004KT M02/M14 A304 RMK A01 T10201143  RH  039%=      5-min Rain = 0
KDO1 130313Z 01003KT M02/M14 A304 RMK A01 T10201142  RH  039%=      5-min Rain = 0
KDO1 130314Z 02003KT M02/M14 A304 RMK A01 T10201142  RH  038%=      5-min Rain = 0
KDO1 130315Z 03003KT M02/M14 A304 RMK A01 T10201143  RH  038%=      5-min Rain = 0
KDO1 130316Z 03002KT M02/M14 A304 RMK A01 T10201143  RH  038%=      5-min Rain = 0
KDO1 130317Z 04003KT M02/M14 A304 RMK A01 T10201143  RH  038%=      5-min Rain = 0
KDO1 130318Z 03003KT M02/M14 A3041 RMK A01 T10211144  RH  038%=      5-min Rain = 0
KDO1 130319Z 02003KT M02/M14 A3041 RMK A01 T10211143  RH  039%=      5-min Rain = 0
KDO1 130320Z 02003KT M02/M14 A3041 RMK A01 T10211143  RH  039%=      5-min Rain = 0
KDO1 130321Z 02004KT M02/M14 A3041 RMK A01 T10211143  RH  039%=      5-min Rain = 0
KDO1 130322Z 02003KT M02/M14 A3041 RMK A01 T10221143  RH  039%=      5-min Rain = 0
KDO1 130323Z 02004KT M02/M14 A3041 RMK A01 T10221144  RH  039%=      5-min Rain = 0
KDO1 130324Z 02004KT M02/M14 A3041 RMK A01 T10221143  RH  039%=      5-min Rain = 0
KDO1 130325Z 02004KT M02/M14 A3041 RMK A01 T10221143  RH  039%=      5-min Rain = 0
KDO1 130326Z 02005KT M02/M14 A3041 RMK A01 T10221143  RH  039%=      5-min Rain = 0
KDO1 130327Z 01005KT M02/M14 A3041 RMK A01 T10221143  RH  039%=      5-min Rain = 0
KDO1 130328Z 01005KT M02/M14 A3041 RMK A01 T10221143  RH  039%=      5-min Rain = 0
KDO1 130329Z 01004KT M02/M14 A3041 RMK A01 T10221144  RH  039%=      5-min Rain = 0
KDO1 130330Z 01004KT M02/M14 A3041 RMK A01 T10231144  RH  039%=      5-min Rain = 0
KDO1 130331Z 01004KT M02/M14 A3041 RMK A01 T10231144  RH  039%=      5-min Rain = 0
KDO1 130332Z 01004KT M02/M14 A3041 RMK A01 T10241144  RH  039%=      5-min Rain = 0
KDO1 130333Z 01004KT M03/M15 A3041 RMK A01 T10261145  RH  039%=      5-min Rain = 0
KDO1 130334Z 02004KT M03/M15 A3042 RMK A01 T10271145  RH  040%=      5-min Rain = 0
KDO1 130335Z 01003KT M03/M15 A3041 RMK A01 T10271145  RH  040%=      5-min Rain = 0
KDO1 130336Z 01004KT M03/M15 A3041 RMK A01 T10271145  RH  040%=      5-min Rain = 0
KDO1 130337Z 02004KT M03/M15 A3041 RMK A01 T10271145  RH  040%=      5-min Rain = 0
KDO1 130338Z 03004KT M03/M15 A3041 RMK A01 T10281145  RH  040%=      5-min Rain = 0
KDO1 130339Z 02002KT M03/M14 A3041 RMK A01 T10271144  RH  040%=      5-min Rain = 0
KDO1 130340Z 02002KT M03/M15 A3041 RMK A01 T10261145  RH  040%=      5-min Rain = 0
KDO1 130341Z 01002KT M03/M15 A3041 RMK A01 T10261145  RH  040%=      5-min Rain = 0
KDO1 130342Z 01002KT M03/M15 A3041 RMK A01 T10271145  RH  040%=      5-min Rain = 0
KDO1 130343Z 01002KT M03/M15 A3041 RMK A01 T10271146  RH  040%=      5-min Rain = 0
KDO1 130344Z 04001KT M03/M15 A3042 RMK A01 T10281146  RH  040%=      5-min Rain = 0
KDO1 130345Z 03002KT M03/M15 A3042 RMK A01 T10291146  RH  040%=      5-min Rain = 0
KDO1 130346Z 03003KT M03/M15 A3042 RMK A01 T10291145  RH  040%=      5-min Rain = 0
KDO1 130347Z 02002KT M03/M15 A3042 RMK A01 T10281145  RH  040%=      5-min Rain = 0
KDO1 130348Z 05000KT M03/M15 A3042 RMK A01 T10281145  RH  040%=      5-min Rain = 0
KDO1 130349Z 08001KT M03/M15 A3041 RMK A01 T10281145  RH  040%=      5-min Rain = 0
KDO1 130350Z 11000KT M03/M15 A3041 RMK A01 T10271145  RH  040%=      5-min Rain = 0
KDO1 130351Z 13002KT M03/M15 A3041 RMK A01 T10271145  RH  040%=      5-min Rain = 0
KDO1 130352Z 13003KT M03/M15 A3041 RMK A01 T10271145  RH  040%=      5-min Rain = 0
KDO1 130353Z 13003KT M03/M14 A3041 RMK A01 T10271144  RH  040%=      5-min Rain = 0
KDO1 130354Z 13003KT M03/M14 A3041 RMK A01 T10261144  RH  040%=      5-min Rain = 0
KDO1 130355Z 13002KT M03/M14 A3041 RMK A01 T10251143  RH  040%=      5-min Rain = 0
KDO1 130356Z 11003KT M03/M14 A3042 RMK A01 T10251143  RH  040%=      5-min Rain = 0
KDO1 130357Z 10003KT M02/M14 A3042 RMK A01 T10241143  RH  040%=      5-min Rain = 0
KDO1 130358Z 10002KT M02/M14 A3042 RMK A01 T10231142  RH  039%=      5-min Rain = 0
KDO1 130359Z 09002KT M02/M14 A3042 RMK A01 T10221142  RH  039%=      5-min Rain = 0
KDO1 130400Z 09002KT M02/M14 A3042 RMK A01 T10221142  RH  039%=      5-min Rain = 0
KDO1 130401Z 10003KT M02/M14 A3042 RMK A01 T10211142  RH  039%=      5-min Rain = 0
KDO1 130402Z 09003KT M02/M14 A3042 RMK A01 T10221142  RH  039%=      5-min Rain = 0
KDO1 130403Z 09003KT M02/M14 A3042 RMK A01 T10221142  RH  039%=      5-min Rain = 0
KDO1 130404Z 09002KT M02/M14 A3042 RMK A01 T10221142  RH  039%=      5-min Rain = 0
KDO1 130405Z 08002KT M02/M14 A3043 RMK A01 T10221142  RH  039%=      5-min Rain = 0
KDO1 130406Z 07002KT M02/M14 A3043 RMK A01 T10221142  RH  039%=      5-min Rain = 0
KDO1 130407Z 06003KT M02/M14 A3043 RMK A01 T10221142  RH  039%=      5-min Rain = 0
KDO1 130408Z 06003KT M02/M14 A3043 RMK A01 T10221143  RH  039%=      5-min Rain = 0
KDO1 130409Z 06003KT M02/M14 A3043 RMK A01 T10211142  RH  039%=      5-min Rain = 0
KDO1 130410Z 06003KT M02/M14 A3043 RMK A01 T10211142  RH  039%=      5-min Rain = 0
KDO1 130411Z 07003KT M02/M14 A3043 RMK A01 T10201142  RH  039%=      5-min Rain = 0
KDO1 130412Z 08003KT M02/M14 A3043 RMK A01 T10201142  RH  039%=      5-min Rain = 0
KDO1 130413Z 10003KT M02/M14 A3043 RMK A01 T10201142  RH  039%=      5-min Rain = 0
KDO1 130414Z 10003KT M02/M14 A3042 RMK A01 T10201142  RH  039%=      5-min Rain = 0
KDO1 130415Z 09004KT M02/M14 A3043 RMK A01 T10201141  RH  039%=      5-min Rain = 0
KDO1 130416Z 08003KT M02/M14 A3043 RMK A01 T10201141  RH  039%=      5-min Rain = 0
KDO1 130417Z 07003KT M02/M14 A3043 RMK A01 T10211141  RH  039%=      5-min Rain = 0
KDO1 130418Z 05002KT M02/M14 A3043 RMK A01 T10211141  RH  039%=      5-min Rain = 0
KDO1 130419Z 06003KT M02/M14 A3043 RMK A01 T10211141  RH  039%=      5-min Rain = 0
KDO1 130420Z 05003KT M02/M14 A3043 RMK A01 T10211142  RH  039%=      5-min Rain = 0
KDO1 130421Z 05003KT M02/M14 A3043 RMK A01 T10221142  RH  039%=      5-min Rain = 0
KDO1 130422Z 05003KT M02/M14 A3043 RMK A01 T10231142  RH  040%=      5-min Rain = 0
KDO1 130423Z 04003KT M02/M14 A3043 RMK A01 T10241142  RH  040%=      5-min Rain = 0
KDO1 130424Z 05002KT M02/M14 A3044 RMK A01 T10241142  RH  040%=      5-min Rain = 0
KDO1 130425Z 03002KT M03/M14 A3044 RMK A01 T10251142  RH  040%=      5-min Rain = 0
KDO1 130426Z 04001KT M03/M14 A3043 RMK A01 T10261142  RH  040%=      5-min Rain = 0
KDO1 130427Z 04002KT M03/M14 A3043 RMK A01 T10261142  RH  041%=      5-min Rain = 0
KDO1 130428Z 04002KT M03/M14 A3043 RMK A01 T10271141  RH  041%=      5-min Rain = 0
KDO1 130429Z 03003KT M03/M14 A3043 RMK A01 T10281141  RH  041%=      5-min Rain = 0
KDO1 130430Z 03003KT M03/M14 A3044 RMK A01 T10281141  RH  041%=      5-min Rain = 0
KDO1 130431Z 03004KT M03/M14 A3044 RMK A01 T10291141  RH  042%=      5-min Rain = 0
KDO1 130432Z 03004KT M03/M14 A3044 RMK A01 T10291141  RH  042%=      5-min Rain = 0
KDO1 130433Z 04005KT M03/M14 A3044 RMK A01 T10291142  RH  042%=      5-min Rain = 0
KDO1 130434Z 04005KT M03/M14 A3044 RMK A01 T10291143  RH  041%=      5-min Rain = 0
KDO1 130435Z 04005KT M03/M14 A3044 RMK A01 T10291143  RH  041%=      5-min Rain = 0
KDO1 130436Z 04005KT M03/M14 A3044 RMK A01 T10291142  RH  041%=      5-min Rain = 0
KDO1 130437Z 05005KT M03/M14 A3044 RMK A01 T10291142  RH  041%=      5-min Rain = 0
KDO1 130438Z 05005KT M03/M14 A3044 RMK A01 T10291142  RH  041%=      5-min Rain = 0
KDO1 130439Z 04005KT M03/M14 A3044 RMK A01 T10291143  RH  041%=      5-min Rain = 0
KDO1 130440Z 04005KT M03/M14 A3044 RMK A01 T10301143  RH  041%=      5-min Rain = 0
KDO1 130441Z 04004KT M03/M14 A3044 RMK A01 T10301143  RH  041%=      5-min Rain = 0
KDO1 130442Z 04004KT M03/M14 A3044 RMK A01 T10301143  RH  042%=      5-min Rain = 0
KDO1 130443Z 04004KT M03/M14 A3044 RMK A01 T10311143  RH  042%=      5-min Rain = 0
KDO1 130444Z 04004KT M03/M14 A3044 RMK A01 T10311143  RH  042%=      5-min Rain = 0
KDO1 130445Z 04004KT M03/M14 A3044 RMK A01 T10311143  RH  042%=      5-min Rain = 0
KDO1 130446Z 04004KT M03/M14 A3044 RMK A01 T10311143  RH  042%=      5-min Rain = 0
KDO1 130447Z 04003KT M03/M14 A3045 RMK A01 T10311144  RH  041%=      5-min Rain = 0
KDO1 130448Z 04004KT M03/M14 A3045 RMK A01 T10321144  RH  041%=      5-min Rain = 0
KDO1 130449Z 04004KT M03/M14 A3045 RMK A01 T10321144  RH  041%=      5-min Rain = 0
KDO1 130450Z 04004KT M03/M15 A3045 RMK A01 T10321145  RH  041%=      5-min Rain = 0
KDO1 130451Z 04005KT M03/M15 A3045 RMK A01 T10321145  RH  041%=      5-min Rain = 0
KDO1 130452Z 04005KT M03/M15 A3045 RMK A01 T10331146  RH  041%=      5-min Rain = 0
KDO1 130453Z 04004KT M03/M15 A3045 RMK A01 T10331146  RH  041%=      5-min Rain = 0
KDO1 130454Z 04004KT M03/M15 A3045 RMK A01 T10331146  RH  041%=      5-min Rain = 0
KDO1 130455Z 04004KT M03/M15 A3045 RMK A01 T10331146  RH  041%=      5-min Rain = 0
KDO1 130456Z 04005KT M03/M15 A3045 RMK A01 T10331146  RH  041%=      5-min Rain = 0
KDO1 130457Z 04005KT M03/M15 A3045 RMK A01 T10331146  RH  041%=      5-min Rain = 0
KDO1 130458Z 05005KT M03/M15 A3045 RMK A01 T10331146  RH  041%=      5-min Rain = 0
KDO1 130459Z 04005KT M03/M15 A3045 RMK A01 T10331146  RH  041%=      5-min Rain = 0
KDO1 130500Z 05005KT M03/M15 A3045 RMK A01 T10331146  RH  041%=      5-min Rain = 0
KDO1 130501Z 05005KT M03/M15 A3044 RMK A01 T10341146  RH  041%=      5-min Rain = 0
KDO1 130502Z 05005KT M03/M15 A3044 RMK A01 T10341147  RH  041%=      5-min Rain = 0
KDO1 130503Z 04005KT M03/M15 A3045 RMK A01 T10341147  RH  041%=      5-min Rain = 0
KDO1 130504Z 04005KT M03/M15 A3045 RMK A01 T10341146  RH  042%=      5-min Rain = 0
KDO1 130505Z 04005KT M04/M15 A3045 RMK A01 T10351147  RH  042%=      5-min Rain = 0
KDO1 130506Z 03005KT M04/M15 A3045 RMK A01 T10361147  RH  042%=      5-min Rain = 0
KDO1 130507Z 04005KT M04/M15 A3045 RMK A01 T10361147  RH  042%=      5-min Rain = 0
KDO1 130508Z 04005KT M04/M15 A3045 RMK A01 T10361146  RH  042%=      5-min Rain = 0
KDO1 130509Z 04005KT M04/M15 A3045 RMK A01 T10361146  RH  042%=      5-min Rain = 0
KDO1 130510Z 04005KT M04/M15 A3045 RMK A01 T10361146  RH  042%=      5-min Rain = 0
KDO1 130511Z 04005KT M04/M15 A3045 RMK A01 T10361147  RH  042%=      5-min Rain = 0
KDO1 130512Z 04005KT M04/M15 A3045 RMK A01 T10361146  RH  042%=      5-min Rain = 0
KDO1 130513Z 03005KT M04/M15 A3045 RMK A01 T10361146  RH  042%=      5-min Rain = 0
KDO1 130514Z 03005KT M04/M15 A3045 RMK A01 T10361147  RH  042%=      5-min Rain = 0
KDO1 130515Z 03005KT M04/M15 A3045 RMK A01 T10371147  RH  042%=      5-min Rain = 0
KDO1 130516Z 03005KT M04/M15 A3045 RMK A01 T10371147  RH  042%=      5-min Rain = 0
KDO1 130517Z 03005KT M04/M15 A3045 RMK A01 T10371147  RH  042%=      5-min Rain = 0
KDO1 130518Z 03005KT M04/M15 A3045 RMK A01 T10371147  RH  042%=      5-min Rain = 0
KDO1 130519Z 03005KT M04/M15 A3045 RMK A01 T10371146  RH  042%=      5-min Rain = 0
KDO1 130520Z 03005KT M04/M15 A3045 RMK A01 T10371146  RH  042%=      5-min Rain = 0
KDO1 130521Z 03005KT M04/M15 A3045 RMK A01 T10371146  RH  042%=      5-min Rain = 0
KDO1 130522Z 03005KT M04/M15 A3045 RMK A01 T10371146  RH  042%=      5-min Rain = 0
KDO1 130523Z 03005KT M04/M15 A3046 RMK A01 T10371147  RH  042%=      5-min Rain = 0
KDO1 130524Z 03006KT M04/M15 A3046 RMK A01 T10371147  RH  042%=      5-min Rain = 0
KDO1 130525Z 02006KT M04/M15 A3046 RMK A01 T10371147  RH  042%=      5-min Rain = 0
KDO1 130526Z 02006KT M04/M15 A3046 RMK A01 T10361147  RH  042%=      5-min Rain = 0
KDO1 130527Z 02005KT M04/M15 A3046 RMK A01 T10361148  RH  042%=      5-min Rain = 0
KDO1 130528Z 02005KT M04/M15 A3046 RMK A01 T10371148  RH  042%=      5-min Rain = 0
KDO1 130529Z 01005KT M04/M15 A3046 RMK A01 T10391149  RH  042%=      5-min Rain = 0
KDO1 130530Z 02005KT M04/M15 A3046 RMK A01 T10401149  RH  042%=      5-min Rain = 0
KDO1 130531Z 01005KT M04/M15 A3047 RMK A01 T10411149  RH  043%=      5-min Rain = 0
KDO1 130532Z 01006KT M04/M15 A3047 RMK A01 T10421150  RH  043%=      5-min Rain = 0
KDO1 130533Z 02006KT M04/M15 A3047 RMK A01 T10421150  RH  043%=      5-min Rain = 0
KDO1 130534Z 01006KT M04/M15 A3047 RMK A01 T10421149  RH  043%=      5-min Rain = 0
KDO1 130535Z 02006KT M04/M15 A3047 RMK A01 T10411149  RH  043%=      5-min Rain = 0
KDO1 130536Z 02005KT M04/M15 A3047 RMK A01 T10411149  RH  043%=      5-min Rain = 0
KDO1 130537Z 01005KT M04/M15 A3047 RMK A01 T10401149  RH  042%=      5-min Rain = 0
KDO1 130538Z 01006KT M04/M15 A3047 RMK A01 T10401150  RH  042%=      5-min Rain = 0
KDO1 130539Z 01006KT M04/M15 A3047 RMK A01 T10411150  RH  042%=      5-min Rain = 0
KDO1 130540Z 00006KT M04/M15 A3047 RMK A01 T10431151  RH  043%=      5-min Rain = 0
KDO1 130541Z 00006KT M04/M15 A3047 RMK A01 T10441151  RH  043%=      5-min Rain = 0
KDO1 130542Z 01006KT M05/M15 A3047 RMK A01 T10451151  RH  043%=      5-min Rain = 0
KDO1 130543Z 01006KT M05/M15 A3047 RMK A01 T10451151  RH  043%=      5-min Rain = 0
KDO1 130544Z 01006KT M04/M15 A3047 RMK A01 T10441150  RH  043%=      5-min Rain = 0
KDO1 130545Z 01006KT M04/M15 A3047 RMK A01 T10431150  RH  043%=      5-min Rain = 0
KDO1 130546Z 01007KT M04/M15 A3047 RMK A01 T10431151  RH  043%=      5-min Rain = 0
KDO1 130547Z 01006KT M04/M15 A3047 RMK A01 T10431150  RH  043%=      5-min Rain = 0
KDO1 130548Z 01006KT M04/M15 A3047 RMK A01 T10431150  RH  043%=      5-min Rain = 0
KDO1 130549Z 01006KT M04/M15 A3047 RMK A01 T10431151  RH  043%=      5-min Rain = 0
KDO1 130550Z 01006KT M04/M15 A3047 RMK A01 T10431151  RH  043%=      5-min Rain = 0
KDO1 130551Z 01006KT M04/M15 A3047 RMK A01 T10431151  RH  043%=      5-min Rain = 0
KDO1 130552Z 01006KT M04/M15 A3047 RMK A01 T10441151  RH  043%=      5-min Rain = 0
KDO1 130553Z 01006KT M04/M15 A3047 RMK A01 T10441151  RH  043%=      5-min Rain = 0
KDO1 130554Z 01006KT M05/M15 A3047 RMK A01 T10451151  RH  043%=      5-min Rain = 0
KDO1 130555Z 00005KT M05/M15 A3047 RMK A01 T10451151  RH  043%=      5-min Rain = 0
KDO1 130556Z 01005KT M05/M15 A3047 RMK A01 T10451151  RH  043%=      5-min Rain = 0
KDO1 130557Z 00005KT M05/M15 A3047 RMK A01 T10451151  RH  043%=      5-min Rain = 0
KDO1 130558Z 00005KT M05/M15 A3047 RMK A01 T10451151  RH  043%=      5-min Rain = 0
KDO1 130559Z 00005KT M05/M15 A3047 RMK A01 T10461152  RH  043%=      5-min Rain = 0

Page generated in 0.0772 seconds.